Wetterdaten: Samstag, 25.07.2015
Datum Zeit Temp. Aussen +5cm Feuchte Auss BlattFeu 1 Luftdruck Regen Sonnenschein Regendauer Solar Windben
25.07.2015 00:00 19,1 C 16,7 C 91 % 15 lf 1002,4 hPa 0,0 l/m 0 min 0 min 0 W/m 8,4 km/h (2 Bft)
25.07.2015 00:02 19,1 C 16,7 C 91 % 15 lf 1002,2 hPa 0,0 l/m 0 min 0 min 0 W/m 6,3 km/h (2 Bft)
25.07.2015 00:05 19,0 C 16,7 C 91 % 15 lf 1002,2 hPa 0,0 l/m 0 min 0 min 0 W/m 10,5 km/h (2 Bft)
25.07.2015 00:07 19,0 C 16,7 C 92 % 15 lf 1002,2 hPa 0,0 l/m 0 min 0 min 0 W/m 12,6 km/h (3 Bft)
25.07.2015 00:10 18,9 C 16,7 C 92 % 14 lf 1002,1 hPa 0,0 l/m 0 min 0 min 0 W/m 10,5 km/h (2 Bft)
25.07.2015 00:12 18,9 C 16,7 C 92 % 12 lf 1001,9 hPa 0,0 l/m 0 min 0 min 0 W/m 10,5 km/h (2 Bft)
25.07.2015 00:14 18,9 C 16,7 C 92 % 9 lf 1002,0 hPa 0,0 l/m 0 min 0 min 0 W/m 10,5 km/h (2 Bft)
25.07.2015 00:16 18,9 C 16,7 C 92 % 4 lf 1001,9 hPa 0,0 l/m 0 min 0 min 0 W/m 10,5 km/h (2 Bft)
25.07.2015 00:18 18,8 C 16,7 C 92 % 3 lf 1001,9 hPa 0,0 l/m 0 min 0 min 0 W/m 10,5 km/h (2 Bft)
25.07.2015 00:20 18,8 C 16,7 C 92 % 2 lf 1001,9 hPa 0,0 l/m 0 min 0 min 0 W/m 14,6 km/h (3 Bft)
25.07.2015 00:22 18,8 C 16,7 C 92 % 2 lf 1001,8 hPa 0,0 l/m 0 min 0 min 0 W/m 18,8 km/h (3 Bft)
25.07.2015 00:24 18,8 C 16,7 C 92 % 1 lf 1001,7 hPa 0,0 l/m 0 min 0 min 0 W/m 14,6 km/h (3 Bft)
25.07.2015 00:26 18,7 C 16,7 C 92 % 2 lf 1001,8 hPa 0,0 l/m 0 min 0 min 0 W/m 8,4 km/h (2 Bft)
25.07.2015 00:28 18,7 C 16,7 C 93 % 1 lf 1001,8 hPa 0,0 l/m 0 min 0 min 0 W/m 12,6 km/h (3 Bft)
25.07.2015 00:30 18,7 C 16,7 C 93 % 1 lf 1001,7 hPa 0,0 l/m 0 min 0 min 0 W/m 12,6 km/h (3 Bft)
25.07.2015 00:32 18,7 C 16,7 C 93 % 1 lf 1001,8 hPa 0,0 l/m 0 min 0 min 0 W/m 10,5 km/h (2 Bft)
25.07.2015 00:34 18,7 C 16,7 C 93 % 1 lf 1001,7 hPa 0,0 l/m 0 min 0 min 0 W/m 14,6 km/h (3 Bft)
25.07.2015 00:36 18,6 C 16,7 C 93 % 1 lf 1001,7 hPa 0,0 l/m 0 min 0 min 0 W/m 16,7 km/h (3 Bft)
25.07.2015 00:38 18,6 C 16,7 C 93 % 1 lf 1001,6 hPa 0,0 l/m 0 min 0 min 0 W/m 14,6 km/h (3 Bft)
25.07.2015 00:40 18,6 C 16,7 C 93 % 1 lf 1001,5 hPa 0,0 l/m 0 min 0 min 0 W/m 14,6 km/h (3 Bft)
25.07.2015 00:42 18,6 C 16,7 C 93 % 1 lf 1001,6 hPa 0,0 l/m 0 min 0 min 0 W/m 8,4 km/h (2 Bft)
25.07.2015 00:44 18,6 C 16,7 C 93 % 2 lf 1001,6 hPa 0,0 l/m 0 min 0 min 0 W/m 12,6 km/h (3 Bft)
25.07.2015 00:46 18,5 C 16,7 C 93 % 2 lf 1001,5 hPa 0,0 l/m 0 min 0 min 0 W/m 12,6 km/h (3 Bft)
25.07.2015 00:48 18,5 C 16,7 C 93 % 1 lf 1001,5 hPa 0,0 l/m 0 min 0 min 0 W/m 10,5 km/h (2 Bft)
25.07.2015 00:50 18,5 C 16,7 C 93 % 1 lf 1001,5 hPa 0,0 l/m 0 min 0 min 0 W/m 12,6 km/h (3 Bft)
25.07.2015 00:52 18,4 C 16,7 C 93 % 1 lf 1001,4 hPa 0,0 l/m 0 min 0 min 0 W/m 14,6 km/h (3 Bft)
25.07.2015 00:54 18,4 C 16,7 C 93 % 1 lf 1001,5 hPa 0,0 l/m 0 min 0 min 0 W/m 14,6 km/h (3 Bft)
25.07.2015 00:56 18,4 C 16,7 C 93 % 1 lf 1001,5 hPa 0,0 l/m 0 min 0 min 0 W/m 14,6 km/h (3 Bft)
25.07.2015 00:58 18,4 C 16,7 C 93 % 1 lf 1001,5 hPa 0,0 l/m 0 min 0 min 0 W/m 14,6 km/h (3 Bft)
25.07.2015 01:00 18,4 C 16,7 C 93 % 1 lf 1001,5 hPa 0,0 l/m 0 min 0 min 0 W/m 12,6 km/h (3 Bft)
25.07.2015 01:02 18,4 C 16,1 C 94 % 1 lf 1001,5 hPa 0,0 l/m 0 min 0 min 0 W/m 12,6 km/h (3 Bft)
25.07.2015 01:04 18,4 C 16,7 C 94 % 1 lf 1001,5 hPa 0,0 l/m 0 min 0 min 0 W/m 14,6 km/h (3 Bft)
25.07.2015 01:06 18,3 C 16,1 C 94 % 1 lf 1001,5 hPa 0,0 l/m 0 min 0 min 0 W/m 10,5 km/h (2 Bft)
25.07.2015 01:08 18,3 C 16,7 C 94 % 1 lf 1001,4 hPa 0,0 l/m 0 min 0 min 0 W/m 12,6 km/h (3 Bft)
25.07.2015 01:10 18,3 C 16,1 C 94 % 1 lf 1001,4 hPa 0,0 l/m 0 min 0 min 0 W/m 14,6 km/h (3 Bft)
25.07.2015 01:12 18,3 C 16,7 C 94 % 1 lf 1001,4 hPa 0,0 l/m 0 min 0 min 0 W/m 12,6 km/h (3 Bft)
25.07.2015 01:14 18,3 C 16,1 C 94 % 1 lf 1001,4 hPa 0,0 l/m 0 min 0 min 0 W/m 10,5 km/h (2 Bft)
25.07.2015 01:16 18,3 C 16,1 C 94 % 1 lf 1001,4 hPa 0,0 l/m 0 min 0 min 0 W/m 12,6 km/h (3 Bft)
25.07.2015 01:18 18,3 C 16,1 C 94 % 1 lf 1001,4 hPa 0,0 l/m 0 min 0 min 0 W/m 6,3 km/h (2 Bft)
25.07.2015 01:20 18,3 C 16,1 C 94 % 1 lf 1001,4 hPa 0,0 l/m 0 min 0 min 0 W/m 14,6 km/h (3 Bft)
25.07.2015 01:22 18,2 C 16,1 C 94 % 1 lf 1001,3 hPa 0,0 l/m 0 min 0 min 0 W/m 12,6 km/h (3 Bft)
25.07.2015 01:24 18,2 C 16,1 C 94 % 1 lf 1001,2 hPa 0,0 l/m 0 min 0 min 0 W/m 10,5 km/h (2 Bft)
25.07.2015 01:26 18,2 C 16,1 C 94 % 1 lf 1001,1 hPa 0,0 l/m 0 min 0 min 0 W/m 12,6 km/h (3 Bft)
25.07.2015 01:28 18,2 C 16,1 C 94 % 1 lf 1001,0 hPa 0,0 l/m 0 min 0 min 0 W/m 12,6 km/h (3 Bft)
25.07.2015 01:30 18,2 C 16,1 C 94 % 1 lf 1001,0 hPa 0,0 l/m 0 min 0 min 0 W/m 6,3 km/h (2 Bft)
25.07.2015 01:32 18,2 C 16,1 C 94 % 1 lf 1000,9 hPa 0,0 l/m 0 min 0 min 0 W/m 12,6 km/h (3 Bft)
25.07.2015 01:34 18,2 C 16,1 C 94 % 1 lf 1000,9 hPa 0,0 l/m 0 min 0 min 0 W/m 8,4 km/h (2 Bft)
25.07.2015 01:36 18,2 C 16,1 C 94 % 1 lf 1000,8 hPa 0,0 l/m 0 min 0 min 0 W/m 12,6 km/h (3 Bft)
25.07.2015 01:38 18,2 C 16,1 C 94 % 1 lf 1000,8 hPa 0,0 l/m 0 min 0 min 0 W/m 10,5 km/h (2 Bft)
25.07.2015 01:40 18,2 C 16,1 C 94 % 1 lf 1000,8 hPa 0,0 l/m 0 min 0 min 0 W/m 8,4 km/h (2 Bft)
25.07.2015 01:42 18,2 C 16,1 C 94 % 1 lf 1000,8 hPa 0,0 l/m 0 min 0 min 0 W/m 10,5 km/h (2 Bft)
25.07.2015 01:44 18,2 C 16,1 C 94 % 1 lf 1000,8 hPa 0,0 l/m 0 min 0 min 0 W/m 10,5 km/h (2 Bft)
25.07.2015 01:46 18,2 C 16,1 C 94 % 2 lf 1000,8 hPa 0,0 l/m 0 min 0 min 0 W/m 12,6 km/h (3 Bft)
25.07.2015 01:48 18,2 C 16,1 C 94 % 2 lf 1000,8 hPa 0,0 l/m 0 min 0 min 0 W/m 14,6 km/h (3 Bft)
25.07.2015 01:50 18,1 C 16,1 C 94 % 2 lf 1000,8 hPa 0,0 l/m 0 min 0 min 0 W/m 12,6 km/h (3 Bft)
25.07.2015 01:52 18,1 C 16,1 C 94 % 2 lf 1000,9 hPa 0,0 l/m 0 min 0 min 0 W/m 10,5 km/h (2 Bft)
25.07.2015 01:54 18,1 C 16,1 C 94 % 1 lf 1000,8 hPa 0,0 l/m 0 min 0 min 0 W/m 10,5 km/h (2 Bft)
25.07.2015 01:56 18,1 C 16,1 C 94 % 1 lf 1000,8 hPa 0,0 l/m 0 min 0 min 0 W/m 12,6 km/h (3 Bft)
25.07.2015 01:58 18,1 C 16,1 C 94 % 1 lf 1000,8 hPa 0,0 l/m 0 min 0 min 0 W/m 14,6 km/h (3 Bft)
25.07.2015 02:00 18,1 C 16,1 C 94 % 2 lf 1000,8 hPa 0,0 l/m 0 min 0 min 0 W/m 12,6 km/h (3 Bft)
25.07.2015 02:02 18,1 C 16,1 C 94 % 1 lf 1000,7 hPa 0,0 l/m 0 min 0 min 0 W/m 8,4 km/h (2 Bft)
25.07.2015 02:04 18,1 C 16,1 C 94 % 1 lf 1000,7 hPa 0,0 l/m 0 min 0 min 0 W/m 12,6 km/h (3 Bft)
25.07.2015 02:06 18,1 C 16,1 C 94 % 2 lf 1000,7 hPa 0,0 l/m 0 min 0 min 0 W/m 12,6 km/h (3 Bft)
25.07.2015 02:08 18,1 C 16,1 C 94 % 1 lf 1000,5 hPa 0,0 l/m 0 min 0 min 0 W/m 14,6 km/h (3 Bft)
25.07.2015 02:10 18,1 C 16,1 C 94 % 1 lf 1000,4 hPa 0,0 l/m 0 min 0 min 0 W/m 12,6 km/h (3 Bft)
25.07.2015 02:12 18,1 C 16,1 C 94 % 2 lf 1000,4 hPa 0,0 l/m 0 min 0 min 0 W/m 14,6 km/h (3 Bft)
25.07.2015 02:14 18,1 C 16,1 C 94 % 2 lf 1000,5 hPa 0,0 l/m 0 min 0 min 0 W/m 14,6 km/h (3 Bft)
25.07.2015 02:16 18,1 C 16,1 C 94 % 1 lf 1000,5 hPa 0,0 l/m 0 min 0 min 0 W/m 10,5 km/h (2 Bft)
25.07.2015 02:18 18,1 C 16,1 C 94 % 2 lf 1000,4 hPa 0,0 l/m 0 min 0 min 0 W/m 14,6 km/h (3 Bft)
25.07.2015 02:20 18,1 C 16,1 C 94 % 1 lf 1000,4 hPa 0,0 l/m 0 min 0 min 0 W/m 12,6 km/h (3 Bft)
25.07.2015 02:22 18,1 C 16,1 C 94 % 2 lf 1000,4 hPa 0,0 l/m 0 min 0 min 0 W/m 8,4 km/h (2 Bft)
25.07.2015 02:24 18,1 C 16,1 C 94 % 2 lf 1000,3 hPa 0,0 l/m 0 min 0 min 0 W/m 8,4 km/h (2 Bft)
25.07.2015 02:26 18,0 C 16,1 C 95 % 2 lf 1000,3 hPa 0,0 l/m 0 min 0 min 0 W/m 12,6 km/h (3 Bft)
25.07.2015 02:28 18,0 C 16,1 C 95 % 2 lf 1000,3 hPa 0,0 l/m 0 min 0 min 0 W/m 12,6 km/h (3 Bft)
25.07.2015 02:30 18,0 C 16,1 C 95 % 2 lf 1000,3 hPa 0,0 l/m 0 min 0 min 0 W/m 12,6 km/h (3 Bft)
25.07.2015 02:32 18,0 C 16,1 C 95 % 2 lf 1000,3 hPa 0,0 l/m 0 min 0 min 0 W/m 12,6 km/h (3 Bft)
25.07.2015 02:34 18,0 C 16,1 C 95 % 2 lf 1000,3 hPa 0,0 l/m 0 min 0 min 0 W/m 12,6 km/h (3 Bft)
25.07.2015 02:36 17,9 C 16,1 C 95 % 2 lf 1000,4 hPa 0,0 l/m 0 min 0 min 0 W/m 12,6 km/h (3 Bft)
25.07.2015 02:38 17,9 C 16,1 C 95 % 2 lf 1000,4 hPa 0,0 l/m 0 min 0 min 0 W/m 14,6 km/h (3 Bft)
25.07.2015 02:40 17,9 C 16,1 C 95 % 2 lf 1000,4 hPa 0,0 l/m 0 min 0 min 0 W/m 12,6 km/h (3 Bft)
25.07.2015 02:42 17,9 C 16,1 C 95 % 2 lf 1000,5 hPa 0,0 l/m 0 min 0 min 0 W/m 14,6 km/h (3 Bft)
25.07.2015 02:44 17,9 C 16,1 C 95 % 2 lf 1000,5 hPa 0,0 l/m 0 min 0 min 0 W/m 12,6 km/h (3 Bft)
25.07.2015 02:46 17,9 C 16,1 C 95 % 2 lf 1000,4 hPa 0,0 l/m 0 min 0 min 0 W/m 10,5 km/h (2 Bft)
25.07.2015 02:48 17,9 C 16,1 C 95 % 1 lf 1000,4 hPa 0,0 l/m 0 min 0 min 0 W/m 12,6 km/h (3 Bft)
25.07.2015 02:50 17,9 C 16,1 C 95 % 2 lf 1000,3 hPa 0,0 l/m 0 min 0 min 0 W/m 12,6 km/h (3 Bft)
25.07.2015 02:52 17,9 C 16,1 C 95 % 2 lf 1000,3 hPa 0,0 l/m 0 min 0 min 0 W/m 10,5 km/h (2 Bft)
25.07.2015 02:54 17,9 C 16,1 C 95 % 2 lf 1000,3 hPa 0,0 l/m 0 min 0 min 0 W/m 10,5 km/h (2 Bft)
25.07.2015 02:56 17,8 C 16,1 C 95 % 2 lf 1000,3 hPa 0,0 l/m 0 min 0 min 0 W/m 12,6 km/h (3 Bft)
25.07.2015 02:58 17,8 C 16,1 C 95 % 2 lf 1000,3 hPa 0,0 l/m 0 min 0 min 0 W/m 14,6 km/h (3 Bft)
25.07.2015 03:00 17,8 C 15,6 C 95 % 2 lf 1000,3 hPa 0,0 l/m 0 min 0 min 0 W/m 14,6 km/h (3 Bft)
25.07.2015 03:02 17,8 C 16,1 C 94 % 1 lf 1000,3 hPa 0,0 l/m 0 min 0 min 0 W/m 14,6 km/h (3 Bft)
25.07.2015 03:04 17,8 C 16,1 C 94 % 2 lf 1000,3 hPa 0,0 l/m 0 min 0 min 0 W/m 12,6 km/h (3 Bft)
25.07.2015 03:06 17,8 C 15,6 C 94 % 1 lf 1000,3 hPa 0,0 l/m 0 min 0 min 0 W/m 12,6 km/h (3 Bft)
25.07.2015 03:08 17,8 C 15,6 C 94 % 1 lf 1000,2 hPa 0,0 l/m 0 min 0 min 0 W/m 12,6 km/h (3 Bft)
25.07.2015 03:10 17,8 C 15,6 C 94 % 1 lf 1000,2 hPa 0,0 l/m 0 min 0 min 0 W/m 16,7 km/h (3 Bft)
25.07.2015 03:12 17,8 C 15,6 C 94 % 1 lf 1000,1 hPa 0,0 l/m 0 min 0 min 0 W/m 18,8 km/h (3 Bft)
25.07.2015 03:14 17,8 C 15,6 C 94 % 1 lf 1000,0 hPa 0,0 l/m 0 min 0 min 0 W/m 10,5 km/h (2 Bft)
25.07.2015 03:16 17,7 C 15,6 C 94 % 1 lf 1000,0 hPa 0,0 l/m 0 min 0 min 0 W/m 12,6 km/h (3 Bft)
25.07.2015 03:18 17,7 C 15,6 C 94 % 1 lf 1000,0 hPa 0,0 l/m 0 min 0 min 0 W/m 14,6 km/h (3 Bft)
25.07.2015 03:20 17,7 C 15,6 C 94 % 1 lf 1000,1 hPa 0,0 l/m 0 min 0 min 0 W/m 14,6 km/h (3 Bft)
25.07.2015 03:22 17,7 C 15,6 C 94 % 1 lf 1000,1 hPa 0,0 l/m 0 min 0 min 0 W/m 12,6 km/h (3 Bft)
25.07.2015 03:24 17,7 C 15,6 C 94 % 1 lf 1000,0 hPa 0,0 l/m 0 min 0 min 0 W/m 12,6 km/h (3 Bft)
25.07.2015 03:26 17,7 C 15,6 C 94 % 1 lf 1000,0 hPa 0,0 l/m 0 min 0 min 0 W/m 12,6 km/h (3 Bft)
25.07.2015 03:28 17,7 C 15,6 C 94 % 1 lf 1000,0 hPa 0,0 l/m 0 min 0 min 0 W/m 10,5 km/h (2 Bft)
25.07.2015 03:30 17,7 C 15,6 C 94 % 1 lf 1000,0 hPa 0,0 l/m 0 min 0 min 0 W/m 12,6 km/h (3 Bft)
25.07.2015 03:32 17,7 C 15,6 C 94 % 1 lf 999,9 hPa 0,0 l/m 0 min 0 min 0 W/m 8,4 km/h (2 Bft)
25.07.2015 03:34 17,7 C 15,6 C 94 % 1 lf 1000,0 hPa 0,0 l/m 0 min 0 min 0 W/m 8,4 km/h (2 Bft)
25.07.2015 03:36 17,7 C 15,6 C 94 % 1 lf 1000,1 hPa 0,0 l/m 0 min 0 min 0 W/m 10,5 km/h (2 Bft)
25.07.2015 03:38 17,7 C 15,6 C 94 % 1 lf 1000,1 hPa 0,0 l/m 0 min 0 min 0 W/m 8,4 km/h (2 Bft)
25.07.2015 03:40 17,7 C 15,6 C 94 % 1 lf 1000,1 hPa 0,0 l/m 0 min 0 min 0 W/m 10,5 km/h (2 Bft)
25.07.2015 03:42 17,7 C 15,6 C 94 % 1 lf 1000,0 hPa 0,0 l/m 0 min 0 min 0 W/m 8,4 km/h (2 Bft)
25.07.2015 03:44 17,7 C 15,6 C 94 % 1 lf 999,9 hPa 0,0 l/m 0 min 0 min 0 W/m 10,5 km/h (2 Bft)
25.07.2015 03:46 17,7 C 15,6 C 94 % 1 lf 999,9 hPa 0,0 l/m 0 min 0 min 0 W/m 10,5 km/h (2 Bft)
25.07.2015 03:48 17,7 C 15,6 C 94 % 1 lf 1000,0 hPa 0,0 l/m 0 min 0 min 0 W/m 12,6 km/h (3 Bft)
25.07.2015 03:50 17,6 C 15,6 C 94 % 1 lf 1000,0 hPa 0,0 l/m 0 min 0 min 0 W/m 6,3 km/h (2 Bft)
25.07.2015 03:52 17,6 C 15,6 C 94 % 1 lf 1000,0 hPa 0,0 l/m 0 min 0 min 0 W/m 10,5 km/h (2 Bft)
25.07.2015 03:54 17,6 C 15,6 C 94 % 1 lf 999,9 hPa 0,0 l/m 0 min 0 min 0 W/m 8,4 km/h (2 Bft)
25.07.2015 03:56 17,6 C 15,6 C 94 % 1 lf 1000,0 hPa 0,0 l/m 0 min 0 min 0 W/m 14,6 km/h (3 Bft)
25.07.2015 03:58 17,6 C 15,6 C 94 % 1 lf 999,9 hPa 0,0 l/m 0 min 0 min 0 W/m 12,6 km/h (3 Bft)
25.07.2015 04:00 17,6 C 15,6 C 94 % 1 lf 999,9 hPa 0,0 l/m 0 min 0 min 0 W/m 10,5 km/h (2 Bft)
25.07.2015 04:02 17,6 C 15,6 C 94 % 1 lf 999,9 hPa 0,0 l/m 0 min 0 min 0 W/m 10,5 km/h (2 Bft)
25.07.2015 04:04 17,6 C 15,6 C 94 % 1 lf 999,9 hPa 0,0 l/m 0 min 0 min 0 W/m 8,4 km/h (2 Bft)
25.07.2015 04:06 17,6 C 15,6 C 94 % 1 lf 999,9 hPa 0,0 l/m 0 min 0 min 0 W/m 10,5 km/h (2 Bft)
25.07.2015 04:08 17,6 C 15,6 C 94 % 1 lf 1000,0 hPa 0,0 l/m 0 min 0 min 0 W/m 10,5 km/h (2 Bft)
25.07.2015 04:10 17,6 C 15,6 C 94 % 1 lf 999,9 hPa 0,0 l/m 0 min 0 min 0 W/m 14,6 km/h (3 Bft)
25.07.2015 04:12 17,5 C 15,6 C 94 % 1 lf 999,9 hPa 0,0 l/m 0 min 0 min 0 W/m 10,5 km/h (2 Bft)
25.07.2015 04:14 17,5 C 15,6 C 94 % 1 lf 999,9 hPa 0,0 l/m 0 min 0 min 0 W/m 10,5 km/h (2 Bft)
25.07.2015 04:16 17,5 C 15,6 C 94 % 1 lf 1000,0 hPa 0,0 l/m 0 min 0 min 0 W/m 10,5 km/h (2 Bft)
25.07.2015 04:18 17,5 C 15,6 C 94 % 1 lf 999,9 hPa 0,0 l/m 0 min 0 min 0 W/m 10,5 km/h (2 Bft)
25.07.2015 04:20 17,5 C 15,6 C 94 % 1 lf 999,9 hPa 0,0 l/m 0 min 0 min 0 W/m 12,6 km/h (3 Bft)
25.07.2015 04:22 17,4 C 15,0 C 94 % 1 lf 999,9 hPa 0,0 l/m 0 min 0 min 0 W/m 8,4 km/h (2 Bft)
25.07.2015 04:24 17,4 C 15,6 C 94 % 1 lf 999,9 hPa 0,0 l/m 0 min 0 min 0 W/m 10,5 km/h (2 Bft)
25.07.2015 04:26 17,4 C 15,6 C 94 % 1 lf 999,9 hPa 0,0 l/m 0 min 0 min 0 W/m 8,4 km/h (2 Bft)
25.07.2015 04:28 17,4 C 15,6 C 94 % 1 lf 999,9 hPa 0,0 l/m 0 min 0 min 0 W/m 8,4 km/h (2 Bft)
25.07.2015 04:30 17,4 C 15,6 C 94 % 1 lf 999,8 hPa 0,0 l/m 0 min 0 min 0 W/m 10,5 km/h (2 Bft)
25.07.2015 04:32 17,4 C 15,6 C 94 % 1 lf 999,8 hPa 0,0 l/m 0 min 0 min 0 W/m 10,5 km/h (2 Bft)
25.07.2015 04:34 17,4 C 15,6 C 94 % 1 lf 999,8 hPa 0,0 l/m 0 min 0 min 0 W/m 12,6 km/h (3 Bft)
25.07.2015 04:36 17,4 C 15,6 C 94 % 4 lf 999,7 hPa 0,0 l/m 0 min 2 min 0 W/m 14,6 km/h (3 Bft)
25.07.2015 04:38 17,4 C 15,6 C 94 % 8 lf 999,7 hPa 0,2 l/m 0 min 2 min 0 W/m 12,6 km/h (3 Bft)
25.07.2015 04:40 17,4 C 15,6 C 94 % 6 lf 999,7 hPa 0,0 l/m 0 min 2 min 0 W/m 12,6 km/h (3 Bft)
25.07.2015 04:42 17,4 C 15,6 C 94 % 4 lf 999,7 hPa 0,0 l/m 0 min 2 min 0 W/m 12,6 km/h (3 Bft)
25.07.2015 04:44 17,5 C 15,6 C 94 % 4 lf 999,7 hPa 0,0 l/m 0 min 0 min 0 W/m 10,5 km/h (2 Bft)
25.07.2015 04:46 17,5 C 15,6 C 94 % 3 lf 999,7 hPa 0,0 l/m 0 min 0 min 0 W/m 12,6 km/h (3 Bft)
25.07.2015 04:48 17,5 C 15,6 C 94 % 2 lf 999,6 hPa 0,0 l/m 0 min 0 min 0 W/m 12,6 km/h (3 Bft)
25.07.2015 04:50 17,5 C 15,6 C 94 % 1 lf 999,6 hPa 0,0 l/m 0 min 0 min 0 W/m 16,7 km/h (3 Bft)
25.07.2015 04:52 17,5 C 15,6 C 94 % 1 lf 999,6 hPa 0,0 l/m 0 min 0 min 0 W/m 12,6 km/h (3 Bft)
25.07.2015 04:54 17,5 C 15,6 C 94 % 1 lf 999,6 hPa 0,0 l/m 0 min 0 min 0 W/m 8,4 km/h (2 Bft)
25.07.2015 04:56 17,5 C 15,6 C 94 % 1 lf 999,6 hPa 0,0 l/m 0 min 0 min 0 W/m 10,5 km/h (2 Bft)
25.07.2015 04:58 17,5 C 15,6 C 94 % 1 lf 999,6 hPa 0,0 l/m 0 min 0 min 0 W/m 10,5 km/h (2 Bft)
25.07.2015 05:00 17,5 C 15,6 C 94 % 1 lf 999,6 hPa 0,0 l/m 0 min 0 min 0 W/m 10,5 km/h (2 Bft)
25.07.2015 05:02 17,5 C 15,6 C 94 % 1 lf 999,7 hPa 0,0 l/m 0 min 0 min 0 W/m 10,5 km/h (2 Bft)
25.07.2015 05:04 17,5 C 15,6 C 94 % 1 lf 999,7 hPa 0,0 l/m 0 min 0 min 0 W/m 8,4 km/h (2 Bft)
25.07.2015 05:06 17,5 C 15,6 C 94 % 1 lf 999,6 hPa 0,0 l/m 0 min 0 min 0 W/m 10,5 km/h (2 Bft)
25.07.2015 05:08 17,5 C 15,6 C 94 % 1 lf 999,7 hPa 0,0 l/m 0 min 0 min 0 W/m 12,6 km/h (3 Bft)
25.07.2015 05:10 17,5 C 15,6 C 94 % 1 lf 999,6 hPa 0,0 l/m 0 min 0 min 0 W/m 12,6 km/h (3 Bft)
25.07.2015 05:12 17,5 C 15,6 C 94 % 1 lf 999,6 hPa 0,0 l/m 0 min 0 min 0 W/m 6,3 km/h (2 Bft)
25.07.2015 05:14 17,5 C 15,6 C 94 % 1 lf 999,6 hPa 0,0 l/m 0 min 0 min 0 W/m 10,5 km/h (2 Bft)
25.07.2015 05:16 17,5 C 15,6 C 94 % 1 lf 999,6 hPa 0,0 l/m 0 min 0 min 0 W/m 10,5 km/h (2 Bft)
25.07.2015 05:18 17,5 C 15,6 C 94 % 1 lf 999,6 hPa 0,0 l/m 0 min 0 min 0 W/m 10,5 km/h (2 Bft)
25.07.2015 05:20 17,5 C 15,6 C 94 % 1 lf 999,6 hPa 0,0 l/m 0 min 0 min 0 W/m 10,5 km/h (2 Bft)
25.07.2015 05:22 17,5 C 15,6 C 94 % 1 lf 999,6 hPa 0,0 l/m 0 min 0 min 0 W/m 8,4 km/h (2 Bft)
25.07.2015 05:24 17,5 C 15,6 C 94 % 1 lf 999,5 hPa 0,0 l/m 0 min 0 min 0 W/m 8,4 km/h (2 Bft)
25.07.2015 05:26 17,5 C 15,6 C 94 % 1 lf 999,6 hPa 0,0 l/m 0 min 0 min 0 W/m 10,5 km/h (2 Bft)
25.07.2015 05:28 17,5 C 15,6 C 94 % 1 lf 999,6 hPa 0,0 l/m 0 min 0 min 0 W/m 10,5 km/h (2 Bft)
25.07.2015 05:30 17,5 C 15,6 C 94 % 1 lf 999,5 hPa 0,0 l/m 0 min 0 min 0 W/m 10,5 km/h (2 Bft)
25.07.2015 05:32 17,5 C 15,6 C 94 % 1 lf 999,6 hPa 0,0 l/m 0 min 0 min 0 W/m 10,5 km/h (2 Bft)
25.07.2015 05:34 17,5 C 15,6 C 94 % 1 lf 999,5 hPa 0,0 l/m 0 min 0 min 0 W/m 10,5 km/h (2 Bft)
25.07.2015 05:36 17,5 C 15,6 C 94 % 1 lf 999,5 hPa 0,0 l/m 0 min 0 min 0 W/m 6,3 km/h (2 Bft)
25.07.2015 05:38 17,5 C 15,6 C 94 % 1 lf 999,4 hPa 0,0 l/m 0 min 0 min 0 W/m 14,6 km/h (3 Bft)
25.07.2015 05:40 17,5 C 15,6 C 94 % 1 lf 999,4 hPa 0,0 l/m 0 min 0 min 0 W/m 10,5 km/h (2 Bft)
25.07.2015 05:42 17,5 C 15,6 C 94 % 1 lf 999,4 hPa 0,0 l/m 0 min 0 min 0 W/m 8,4 km/h (2 Bft)
25.07.2015 05:44 17,5 C 15,6 C 94 % 1 lf 999,3 hPa 0,0 l/m 0 min 0 min 0 W/m 8,4 km/h (2 Bft)
25.07.2015 05:46 17,5 C 15,6 C 94 % 1 lf 999,3 hPa 0,0 l/m 0 min 0 min 0 W/m 10,5 km/h (2 Bft)
25.07.2015 05:48 17,5 C 15,6 C 94 % 1 lf 999,3 hPa 0,0 l/m 0 min 0 min 0 W/m 18,8 km/h (3 Bft)
25.07.2015 05:50 17,6 C 15,6 C 94 % 1 lf 999,3 hPa 0,0 l/m 0 min 0 min 0 W/m 16,7 km/h (3 Bft)
25.07.2015 05:52 17,6 C 15,6 C 94 % 1 lf 999,3 hPa 0,0 l/m 0 min 0 min 3 W/m 16,7 km/h (3 Bft)
25.07.2015 05:54 17,6 C 15,6 C 94 % 1 lf 999,2 hPa 0,0 l/m 0 min 0 min 5 W/m 10,5 km/h (2 Bft)
25.07.2015 05:56 17,6 C 16,1 C 94 % 1 lf 999,3 hPa 0,0 l/m 0 min 0 min 7 W/m 16,7 km/h (3 Bft)
25.07.2015 05:58 17,6 C 16,1 C 94 % 1 lf 999,2 hPa 0,0 l/m 0 min 0 min 9 W/m 14,6 km/h (3 Bft)
25.07.2015 06:00 17,6 C 16,1 C 94 % 1 lf 999,2 hPa 0,0 l/m 0 min 0 min 8 W/m 14,6 km/h (3 Bft)
25.07.2015 06:02 17,7 C 16,1 C 94 % 1 lf 999,2 hPa 0,0 l/m 0 min 0 min 9 W/m 10,5 km/h (2 Bft)
25.07.2015 06:05 17,7 C 16,1 C 94 % 1 lf 999,1 hPa 0,0 l/m 0 min 0 min 9 W/m 12,6 km/h (3 Bft)
25.07.2015 06:07 17,7 C 16,1 C 94 % 1 lf 999,1 hPa 0,0 l/m 0 min 0 min 9 W/m 12,6 km/h (3 Bft)
25.07.2015 06:08 17,7 C 16,1 C 94 % 1 lf 999,1 hPa 0,0 l/m 0 min 0 min 11 W/m 16,7 km/h (3 Bft)
25.07.2015 06:10 17,7 C 16,1 C 94 % 1 lf 999,1 hPa 0,0 l/m 0 min 2 min 11 W/m 20,9 km/h (4 Bft)
25.07.2015 06:12 17,8 C 16,1 C 94 % 1 lf 999,1 hPa 0,0 l/m 0 min 0 min 9 W/m 18,8 km/h (3 Bft)
25.07.2015 06:14 17,8 C 16,1 C 94 % 2 lf 999,2 hPa 0,0 l/m 0 min 2 min 9 W/m 23,0 km/h (4 Bft)
25.07.2015 06:16 17,8 C 16,1 C 94 % 1 lf 999,1 hPa 0,0 l/m 0 min 0 min 9 W/m 14,6 km/h (3 Bft)
25.07.2015 06:18 17,8 C 15,6 C 94 % 1 lf 999,2 hPa 0,0 l/m 0 min 0 min 9 W/m 18,8 km/h (3 Bft)
25.07.2015 06:20 17,9 C 15,6 C 94 % 1 lf 999,2 hPa 0,0 l/m 0 min 0 min 10 W/m 18,8 km/h (3 Bft)
25.07.2015 06:22 17,9 C 16,1 C 94 % 1 lf 999,1 hPa 0,0 l/m 0 min 0 min 10 W/m 16,7 km/h (3 Bft)
25.07.2015 06:24 17,9 C 16,1 C 94 % 1 lf 999,2 hPa 0,0 l/m 0 min 0 min 9 W/m 18,8 km/h (3 Bft)
25.07.2015 06:26 17,9 C 16,1 C 94 % 0 lf 999,1 hPa 0,0 l/m 0 min 0 min 8 W/m 14,6 km/h (3 Bft)
25.07.2015 06:28 17,9 C 16,1 C 94 % 1 lf 999,1 hPa 0,0 l/m 0 min 0 min 8 W/m 10,5 km/h (2 Bft)
25.07.2015 06:30 18,0 C 16,1 C 94 % 1 lf 999,1 hPa 0,0 l/m 0 min 0 min 10 W/m 14,6 km/h (3 Bft)
25.07.2015 06:32 18,0 C 16,1 C 93 % 1 lf 999,1 hPa 0,0 l/m 0 min 0 min 11 W/m 18,8 km/h (3 Bft)
25.07.2015 06:34 18,1 C 16,1 C 93 % 1 lf 999,1 hPa 0,0 l/m 0 min 0 min 12 W/m 16,7 km/h (3 Bft)
25.07.2015 06:36 18,1 C 16,1 C 93 % 1 lf 999,1 hPa 0,0 l/m 0 min 0 min 11 W/m 14,6 km/h (3 Bft)
25.07.2015 06:38 18,1 C 16,1 C 93 % 1 lf 999,0 hPa 0,0 l/m 0 min 0 min 13 W/m 16,7 km/h (3 Bft)
25.07.2015 06:40 18,1 C 16,1 C 93 % 1 lf 998,9 hPa 0,0 l/m 0 min 0 min 18 W/m 18,8 km/h (3 Bft)
25.07.2015 06:42 18,1 C 16,1 C 93 % 0 lf 998,9 hPa 0,0 l/m 0 min 0 min 21 W/m 18,8 km/h (3 Bft)
25.07.2015 06:44 18,1 C 16,1 C 93 % 1 lf 998,8 hPa 0,0 l/m 0 min 0 min 19 W/m 16,7 km/h (3 Bft)
25.07.2015 06:46 18,1 C 16,1 C 93 % 1 lf 998,8 hPa 0,0 l/m 0 min 0 min 23 W/m 20,9 km/h (4 Bft)
25.07.2015 06:48 18,1 C 16,1 C 93 % 0 lf 998,8 hPa 0,0 l/m 0 min 0 min 28 W/m 14,6 km/h (3 Bft)
25.07.2015 06:50 18,2 C 16,1 C 93 % 0 lf 998,8 hPa 0,0 l/m 0 min 0 min 40 W/m 14,6 km/h (3 Bft)
25.07.2015 06:52 18,2 C 16,1 C 93 % 0 lf 998,8 hPa 0,0 l/m 0 min 0 min 35 W/m 12,6 km/h (3 Bft)
25.07.2015 06:54 18,2 C 16,1 C 93 % 0 lf 998,8 hPa 0,0 l/m 0 min 0 min 27 W/m 16,7 km/h (3 Bft)
25.07.2015 06:56 18,2 C 16,1 C 93 % 0 lf 998,8 hPa 0,0 l/m 0 min 0 min 31 W/m 14,6 km/h (3 Bft)
25.07.2015 06:58 18,2 C 16,1 C 93 % 0 lf 998,8 hPa 0,0 l/m 0 min 0 min 46 W/m 16,7 km/h (3 Bft)
25.07.2015 07:00 18,2 C 16,1 C 93 % 0 lf 998,8 hPa 0,0 l/m 0 min 0 min 46 W/m 14,6 km/h (3 Bft)
25.07.2015 07:02 18,2 C 16,1 C 93 % 0 lf 998,8 hPa 0,0 l/m 0 min 0 min 40 W/m 20,9 km/h (4 Bft)
25.07.2015 07:04 18,2 C 16,1 C 93 % 0 lf 998,7 hPa 0,0 l/m 0 min 0 min 39 W/m 16,7 km/h (3 Bft)
25.07.2015 07:06 18,2 C 16,1 C 93 % 0 lf 998,7 hPa 0,0 l/m 0 min 0 min 42 W/m 20,9 km/h (4 Bft)
25.07.2015 07:08 18,2 C 16,1 C 92 % 0 lf 998,7 hPa 0,0 l/m 0 min 0 min 52 W/m 12,6 km/h (3 Bft)
25.07.2015 07:10 18,3 C 16,1 C 92 % 0 lf 998,7 hPa 0,0 l/m 0 min 0 min 48 W/m 20,9 km/h (4 Bft)
25.07.2015 07:12 18,3 C 16,1 C 92 % 0 lf 998,6 hPa 0,0 l/m 0 min 0 min 48 W/m 12,6 km/h (3 Bft)
25.07.2015 07:14 18,3 C 16,1 C 92 % 0 lf 998,6 hPa 0,0 l/m 0 min 0 min 52 W/m 16,7 km/h (3 Bft)
25.07.2015 07:16 18,3 C 16,1 C 92 % 0 lf 998,6 hPa 0,0 l/m 0 min 0 min 53 W/m 18,8 km/h (3 Bft)
25.07.2015 07:18 18,3 C 16,1 C 92 % 0 lf 998,6 hPa 0,0 l/m 0 min 0 min 95 W/m 20,9 km/h (4 Bft)
25.07.2015 07:20 18,3 C 16,1 C 92 % 0 lf 998,5 hPa 0,0 l/m 0 min 0 min 87 W/m 23,0 km/h (4 Bft)
25.07.2015 07:22 18,3 C 16,1 C 92 % 0 lf 998,5 hPa 0,0 l/m 2 min 0 min 157 W/m 25,1 km/h (4 Bft)
25.07.2015 07:24 18,3 C 16,1 C 92 % 0 lf 998,5 hPa 0,0 l/m 2 min 0 min 181 W/m 20,9 km/h (4 Bft)
25.07.2015 07:26 18,3 C 16,1 C 92 % 0 lf 998,4 hPa 0,0 l/m 2 min 0 min 187 W/m 16,7 km/h (3 Bft)
25.07.2015 07:28 18,3 C 16,1 C 92 % 0 lf 998,4 hPa 0,0 l/m 2 min 0 min 192 W/m 18,8 km/h (3 Bft)
25.07.2015 07:30 18,3 C 16,1 C 92 % 0 lf 998,4 hPa 0,0 l/m 2 min 0 min 198 W/m 14,6 km/h (3 Bft)
25.07.2015 07:32 18,3 C 16,1 C 92 % 0 lf 998,4 hPa 0,0 l/m 2 min 0 min 202 W/m 16,7 km/h (3 Bft)
25.07.2015 07:34 18,3 C 16,1 C 92 % 0 lf 998,4 hPa 0,0 l/m 2 min 0 min 207 W/m 14,6 km/h (3 Bft)
25.07.2015 07:36 18,3 C 16,1 C 92 % 0 lf 998,4 hPa 0,0 l/m 2 min 0 min 210 W/m 20,9 km/h (4 Bft)
25.07.2015 07:38 18,3 C 16,1 C 92 % 0 lf 998,4 hPa 0,0 l/m 2 min 0 min 218 W/m 16,7 km/h (3 Bft)
25.07.2015 07:40 18,3 C 16,1 C 92 % 0 lf 998,4 hPa 0,0 l/m 2 min 0 min 224 W/m 14,6 km/h (3 Bft)
25.07.2015 07:42 18,4 C 16,7 C 92 % 0 lf 998,4 hPa 0,0 l/m 2 min 0 min 227 W/m 14,6 km/h (3 Bft)
25.07.2015 07:44 18,4 C 16,7 C 92 % 0 lf 998,4 hPa 0,0 l/m 2 min 0 min 232 W/m 16,7 km/h (3 Bft)
25.07.2015 07:46 18,4 C 16,7 C 92 % 0 lf 998,4 hPa 0,0 l/m 2 min 0 min 248 W/m 20,9 km/h (4 Bft)
25.07.2015 07:48 18,4 C 16,7 C 92 % 0 lf 998,5 hPa 0,0 l/m 2 min 0 min 242 W/m 14,6 km/h (3 Bft)
25.07.2015 07:50 18,4 C 17,2 C 92 % 0 lf 998,4 hPa 0,0 l/m 2 min 0 min 272 W/m 10,5 km/h (2 Bft)
25.07.2015 07:52 18,4 C 17,2 C 91 % 0 lf 998,5 hPa 0,0 l/m 2 min 0 min 272 W/m 16,7 km/h (3 Bft)
25.07.2015 07:54 18,5 C 17,2 C 91 % 0 lf 998,4 hPa 0,0 l/m 2 min 0 min 281 W/m 12,6 km/h (3 Bft)
25.07.2015 07:56 18,5 C 17,2 C 91 % 0 lf 998,4 hPa 0,0 l/m 2 min 0 min 279 W/m 35,6 km/h (5 Bft)
25.07.2015 07:58 18,6 C 17,2 C 91 % 0 lf 998,5 hPa 0,0 l/m 2 min 0 min 284 W/m 35,6 km/h (5 Bft)
25.07.2015 08:00 18,6 C 17,2 C 90 % 0 lf 998,5 hPa 0,0 l/m 2 min 0 min 284 W/m 27,2 km/h (4 Bft)
25.07.2015 08:02 18,6 C 17,2 C 89 % 0 lf 998,5 hPa 0,0 l/m 2 min 0 min 294 W/m 29,3 km/h (5 Bft)
25.07.2015 08:04 18,7 C 17,8 C 89 % 0 lf 998,5 hPa 0,0 l/m 2 min 0 min 349 W/m 23,0 km/h (4 Bft)
25.07.2015 08:06 18,7 C 17,8 C 89 % 0 lf 998,6 hPa 0,0 l/m 2 min 0 min 247 W/m 31,4 km/h (5 Bft)
25.07.2015 08:08 18,8 C 17,8 C 88 % 0 lf 998,6 hPa 0,0 l/m 0 min 0 min 114 W/m 25,1 km/h (4 Bft)
25.07.2015 08:10 18,8 C 17,8 C 87 % 0 lf 998,6 hPa 0,0 l/m 0 min 0 min 113 W/m 23,0 km/h (4 Bft)
25.07.2015 08:12 18,9 C 17,8 C 87 % 0 lf 998,6 hPa 0,0 l/m 0 min 0 min 118 W/m 18,8 km/h (3 Bft)
25.07.2015 08:14 19,0 C 18,3 C 86 % 0 lf 998,6 hPa 0,0 l/m 0 min 0 min 129 W/m 25,1 km/h (4 Bft)
25.07.2015 08:16 19,1 C 18,3 C 86 % 0 lf 998,6 hPa 0,0 l/m 0 min 0 min 125 W/m 33,5 km/h (5 Bft)
25.07.2015 08:18 19,1 C 18,3 C 85 % 0 lf 998,6 hPa 0,0 l/m 0 min 0 min 102 W/m 35,6 km/h (5 Bft)
25.07.2015 08:20 19,2 C 18,3 C 85 % 0 lf 998,6 hPa 0,0 l/m 0 min 0 min 100 W/m 25,1 km/h (4 Bft)
25.07.2015 08:22 19,2 C 18,3 C 84 % 0 lf 998,6 hPa 0,0 l/m 0 min 0 min 113 W/m 27,2 km/h (4 Bft)
25.07.2015 08:24 19,2 C 18,3 C 84 % 0 lf 998,6 hPa 0,0 l/m 0 min 0 min 103 W/m 16,7 km/h (3 Bft)
25.07.2015 08:26 19,3 C 18,3 C 84 % 0 lf 998,6 hPa 0,0 l/m 0 min 0 min 124 W/m 25,1 km/h (4 Bft)
25.07.2015 08:28 19,3 C 18,3 C 83 % 0 lf 998,6 hPa 0,0 l/m 0 min 0 min 163 W/m 16,7 km/h (3 Bft)
25.07.2015 08:30 19,4 C 18,3 C 83 % 0 lf 998,6 hPa 0,0 l/m 0 min 0 min 183 W/m 27,2 km/h (4 Bft)
25.07.2015 08:32 19,4 C 18,3 C 83 % 0 lf 998,5 hPa 0,0 l/m 2 min 0 min 258 W/m 25,1 km/h (4 Bft)
25.07.2015 08:34 19,5 C 18,3 C 83 % 0 lf 998,5 hPa 0,0 l/m 0 min 0 min 180 W/m 20,9 km/h (4 Bft)
25.07.2015 08:36 19,5 C 18,3 C 82 % 0 lf 998,5 hPa 0,0 l/m 0 min 0 min 141 W/m 18,8 km/h (3 Bft)
25.07.2015 08:38 19,6 C 18,3 C 82 % 0 lf 998,5 hPa 0,0 l/m 0 min 0 min 155 W/m 23,0 km/h (4 Bft)
25.07.2015 08:40 19,6 C 18,3 C 82 % 0 lf 998,5 hPa 0,0 l/m 0 min 0 min 173 W/m 33,5 km/h (5 Bft)
25.07.2015 08:42 19,6 C 18,3 C 81 % 0 lf 998,5 hPa 0,0 l/m 0 min 0 min 159 W/m 16,7 km/h (3 Bft)
25.07.2015 08:44 19,7 C 18,3 C 81 % 0 lf 998,5 hPa 0,0 l/m 0 min 0 min 111 W/m 23,0 km/h (4 Bft)
25.07.2015 08:46 19,7 C 18,3 C 81 % 0 lf 998,5 hPa 0,0 l/m 0 min 0 min 88 W/m 14,6 km/h (3 Bft)
25.07.2015 08:48 19,7 C 17,8 C 81 % 14 lf 998,4 hPa 0,0 l/m 0 min 2 min 89 W/m 16,7 km/h (3 Bft)
25.07.2015 08:50 19,7 C 17,2 C 82 % 13 lf 998,4 hPa 0,0 l/m 0 min 2 min 90 W/m 14,6 km/h (3 Bft)
25.07.2015 08:52 19,7 C 16,7 C 82 % 14 lf 998,4 hPa 0,0 l/m 0 min 2 min 81 W/m 16,7 km/h (3 Bft)
25.07.2015 08:54 19,7 C 16,7 C 82 % 11 lf 998,4 hPa 0,0 l/m 0 min 2 min 65 W/m 20,9 km/h (4 Bft)
25.07.2015 08:56 19,7 C 16,7 C 82 % 15 lf 998,4 hPa 0,0 l/m 0 min 2 min 49 W/m 14,6 km/h (3 Bft)
25.07.2015 08:58 19,7 C 16,1 C 82 % 15 lf 998,5 hPa 0,0 l/m 0 min 2 min 35 W/m 16,7 km/h (3 Bft)
25.07.2015 09:00 19,7 C 16,1 C 82 % 15 lf 998,6 hPa 0,2 l/m 0 min 2 min 31 W/m 18,8 km/h (3 Bft)
25.07.2015 09:02 19,6 C 15,6 C 83 % 15 lf 998,8 hPa 0,2 l/m 0 min 2 min 20 W/m 20,9 km/h (4 Bft)
25.07.2015 09:04 19,6 C 15,6 C 83 % 15 lf 998,7 hPa 0,2 l/m 0 min 2 min 14 W/m 18,8 km/h (3 Bft)
25.07.2015 09:06 19,4 C 15,6 C 84 % 15 lf 998,9 hPa 0,2 l/m 0 min 2 min 14 W/m 25,1 km/h (4 Bft)
25.07.2015 09:08 19,3 C 15,6 C 84 % 15 lf 999,0 hPa 0,6 l/m 0 min 2 min 22 W/m 18,8 km/h (3 Bft)
25.07.2015 09:10 19,2 C 15,6 C 85 % 15 lf 998,8 hPa 0,6 l/m 0 min 2 min 34 W/m 20,9 km/h (4 Bft)
25.07.2015 09:12 19,1 C 15,6 C 85 % 15 lf 998,6 hPa 0,4 l/m 0 min 2 min 44 W/m 27,2 km/h (4 Bft)
25.07.2015 09:14 18,9 C 15,6 C 86 % 15 lf 998,6 hPa 0,2 l/m 0 min 2 min 56 W/m 20,9 km/h (4 Bft)
25.07.2015 09:16 18,8 C 15,6 C 87 % 15 lf 998,5 hPa 0,2 l/m 0 min 2 min 75 W/m 25,1 km/h (4 Bft)
25.07.2015 09:18 18,7 C 15,6 C 87 % 15 lf 998,6 hPa 0,2 l/m 0 min 2 min 114 W/m 23,0 km/h (4 Bft)
25.07.2015 09:20 18,5 C 15,6 C 88 % 15 lf 998,3 hPa 0,0 l/m 0 min 2 min 182 W/m 27,2 km/h (4 Bft)
25.07.2015 09:22 18,4 C 15,6 C 88 % 15 lf 998,3 hPa 0,0 l/m 0 min 2 min 217 W/m 20,9 km/h (4 Bft)
25.07.2015 09:24 18,3 C 16,1 C 89 % 15 lf 998,3 hPa 0,0 l/m 0 min 2 min 203 W/m 18,8 km/h (3 Bft)
25.07.2015 09:26 18,2 C 16,1 C 90 % 15 lf 998,3 hPa 0,0 l/m 0 min 2 min 205 W/m 23,0 km/h (4 Bft)
25.07.2015 09:28 18,2 C 15,6 C 90 % 15 lf 998,5 hPa 0,0 l/m 0 min 2 min 181 W/m 23,0 km/h (4 Bft)
25.07.2015 09:30 18,1 C 15,6 C 90 % 15 lf 998,5 hPa 0,0 l/m 0 min 0 min 155 W/m 16,7 km/h (3 Bft)
25.07.2015 09:32 18,1 C 15,6 C 91 % 15 lf 998,6 hPa 0,0 l/m 0 min 0 min 154 W/m 18,8 km/h (3 Bft)
25.07.2015 09:34 18,0 C 15,6 C 91 % 15 lf 998,6 hPa 0,0 l/m 0 min 0 min 164 W/m 18,8 km/h (3 Bft)
25.07.2015 09:36 17,9 C 15,6 C 91 % 15 lf 998,7 hPa 0,0 l/m 0 min 0 min 208 W/m 25,1 km/h (4 Bft)
25.07.2015 09:38 17,9 C 16,1 C 92 % 15 lf 998,8 hPa 0,0 l/m 2 min 0 min 342 W/m 16,7 km/h (3 Bft)
25.07.2015 09:40 18,0 C 16,1 C 92 % 15 lf 998,8 hPa 0,0 l/m 2 min 0 min 571 W/m 25,1 km/h (4 Bft)
25.07.2015 09:42 18,0 C 16,1 C 92 % 15 lf 999,1 hPa 0,0 l/m 2 min 0 min 571 W/m 25,1 km/h (4 Bft)
25.07.2015 09:44 18,0 C 16,1 C 92 % 15 lf 999,2 hPa 0,0 l/m 2 min 0 min 556 W/m 35,6 km/h (5 Bft)
25.07.2015 09:46 18,0 C 16,1 C 93 % 15 lf 999,0 hPa 0,0 l/m 2 min 0 min 406 W/m 25,1 km/h (4 Bft)
25.07.2015 09:48 17,9 C 16,1 C 93 % 15 lf 999,3 hPa 0,0 l/m 2 min 0 min 302 W/m 41,8 km/h (6 Bft)
25.07.2015 09:50 17,9 C 15,6 C 92 % 15 lf 999,1 hPa 0,0 l/m 2 min 0 min 332 W/m 33,5 km/h (5 Bft)
25.07.2015 09:52 17,8 C 15,6 C 92 % 15 lf 999,2 hPa 0,0 l/m 2 min 0 min 287 W/m 37,7 km/h (5 Bft)
25.07.2015 09:54 17,7 C 15,6 C 92 % 15 lf 999,2 hPa 0,2 l/m 0 min 0 min 277 W/m 35,6 km/h (5 Bft)
25.07.2015 09:56 17,7 C 16,1 C 92 % 15 lf 999,2 hPa 0,0 l/m 0 min 0 min 265 W/m 31,4 km/h (5 Bft)
25.07.2015 09:58 17,8 C 17,2 C 92 % 15 lf 999,3 hPa 0,0 l/m 2 min 0 min 317 W/m 41,8 km/h (6 Bft)
25.07.2015 10:00 17,8 C 16,7 C 92 % 15 lf 999,4 hPa 0,0 l/m 2 min 0 min 766 W/m 52,3 km/h (7 Bft)
25.07.2015 10:02 17,9 C 17,2 C 92 % 15 lf 999,4 hPa 0,0 l/m 2 min 0 min 662 W/m 50,2 km/h (7 Bft)
25.07.2015 10:04 17,8 C 16,1 C 92 % 15 lf 999,4 hPa 0,0 l/m 2 min 0 min 403 W/m 48,1 km/h (6 Bft)
25.07.2015 10:06 17,8 C 15,6 C 91 % 15 lf 999,4 hPa 0,0 l/m 0 min 0 min 218 W/m 41,8 km/h (6 Bft)
25.07.2015 10:08 17,7 C 15,6 C 90 % 14 lf 999,5 hPa 0,0 l/m 0 min 0 min 216 W/m 33,5 km/h (5 Bft)
25.07.2015 10:10 17,7 C 15,6 C 90 % 13 lf 999,4 hPa 0,0 l/m 0 min 0 min 225 W/m 27,2 km/h (4 Bft)
25.07.2015 10:12 17,7 C 15,6 C 90 % 11 lf 999,5 hPa 0,0 l/m 0 min 0 min 225 W/m 31,4 km/h (5 Bft)
25.07.2015 10:14 17,7 C 15,6 C 90 % 7 lf 999,5 hPa 0,0 l/m 0 min 0 min 197 W/m 43,9 km/h (6 Bft)
25.07.2015 10:16 17,6 C 15,0 C 90 % 5 lf 999,5 hPa 0,0 l/m 0 min 0 min 164 W/m 39,7 km/h (6 Bft)
25.07.2015 10:18 17,6 C 15,0 C 90 % 4 lf 999,5 hPa 0,0 l/m 0 min 0 min 151 W/m 35,6 km/h (5 Bft)
25.07.2015 10:20 17,5 C 15,0 C 90 % 3 lf 999,5 hPa 0,0 l/m 0 min 0 min 159 W/m 37,7 km/h (5 Bft)
25.07.2015 10:22 17,4 C 15,0 C 90 % 3 lf 999,5 hPa 0,0 l/m 0 min 0 min 158 W/m 23,0 km/h (4 Bft)
25.07.2015 10:24 17,4 C 15,6 C 90 % 3 lf 999,5 hPa 0,0 l/m 0 min 0 min 190 W/m 25,1 km/h (4 Bft)
25.07.2015 10:26 17,4 C 15,6 C 90 % 2 lf 999,6 hPa 0,0 l/m 0 min 0 min 252 W/m 29,3 km/h (5 Bft)
25.07.2015 10:28 17,4 C 15,6 C 90 % 1 lf 999,6 hPa 0,0 l/m 2 min 0 min 338 W/m 25,1 km/h (4 Bft)
25.07.2015 10:30 17,4 C 15,6 C 90 % 0 lf 999,6 hPa 0,0 l/m 2 min 0 min 387 W/m 33,5 km/h (5 Bft)
25.07.2015 10:32 17,4 C 15,6 C 90 % 0 lf 999,6 hPa 0,0 l/m 2 min 0 min 356 W/m 33,5 km/h (5 Bft)
25.07.2015 10:34 17,4 C 15,6 C 90 % 0 lf 999,6 hPa 0,0 l/m 2 min 0 min 329 W/m 23,0 km/h (4 Bft)
25.07.2015 10:36 17,4 C 16,7 C 90 % 0 lf 999,6 hPa 0,0 l/m 2 min 0 min 464 W/m 27,2 km/h (4 Bft)
25.07.2015 10:38 17,5 C 16,1 C 91 % 0 lf 999,6 hPa 0,0 l/m 2 min 0 min 706 W/m 29,3 km/h (5 Bft)
25.07.2015 10:40 17,6 C 16,1 C 91 % 0 lf 999,6 hPa 0,0 l/m 2 min 0 min 338 W/m 25,1 km/h (4 Bft)
25.07.2015 10:42 17,7 C 16,1 C 91 % 0 lf 999,7 hPa 0,0 l/m 2 min 0 min 598 W/m 27,2 km/h (4 Bft)
25.07.2015 10:44 17,7 C 16,7 C 90 % 0 lf 999,7 hPa 0,0 l/m 2 min 0 min 727 W/m 29,3 km/h (5 Bft)
25.07.2015 10:46 17,8 C 16,7 C 90 % 0 lf 999,6 hPa 0,0 l/m 2 min 0 min 496 W/m 37,7 km/h (5 Bft)
25.07.2015 10:48 17,9 C 16,7 C 90 % 0 lf 999,6 hPa 0,0 l/m 2 min 0 min 541 W/m 29,3 km/h (5 Bft)
25.07.2015 10:50 18,0 C 17,2 C 90 % 0 lf 999,6 hPa 0,0 l/m 2 min 0 min 596 W/m 43,9 km/h (6 Bft)
25.07.2015 10:52 18,1 C 17,2 C 90 % 0 lf 999,5 hPa 0,0 l/m 2 min 0 min 663 W/m 25,1 km/h (4 Bft)
25.07.2015 10:54 18,1 C 17,2 C 89 % 0 lf 999,6 hPa 0,0 l/m 2 min 0 min 581 W/m 31,4 km/h (5 Bft)
25.07.2015 10:56 18,2 C 17,8 C 88 % 0 lf 999,7 hPa 0,0 l/m 2 min 0 min 525 W/m 43,9 km/h (6 Bft)
25.07.2015 10:58 18,2 C 17,8 C 87 % 0 lf 999,7 hPa 0,0 l/m 2 min 0 min 571 W/m 39,7 km/h (6 Bft)
25.07.2015 11:00 18,2 C 17,2 C 87 % 0 lf 999,7 hPa 0,0 l/m 0 min 0 min 291 W/m 37,7 km/h (5 Bft)
25.07.2015 11:02 18,2 C 16,7 C 87 % 0 lf 999,8 hPa 0,0 l/m 0 min 0 min 167 W/m 46,0 km/h (6 Bft)
25.07.2015 11:04 18,2 C 16,7 C 87 % 0 lf 999,8 hPa 0,0 l/m 0 min 0 min 269 W/m 41,8 km/h (6 Bft)
25.07.2015 11:06 18,2 C 16,7 C 86 % 0 lf 1000,0 hPa 0,0 l/m 0 min 0 min 320 W/m 35,6 km/h (5 Bft)
25.07.2015 11:08 18,2 C 16,7 C 86 % 0 lf 999,8 hPa 0,0 l/m 0 min 0 min 209 W/m 39,7 km/h (6 Bft)
25.07.2015 11:10 18,1 C 16,7 C 86 % 0 lf 999,8 hPa 0,0 l/m 0 min 0 min 157 W/m 35,6 km/h (5 Bft)
25.07.2015 11:12 18,1 C 16,1 C 86 % 0 lf 999,8 hPa 0,0 l/m 0 min 0 min 112 W/m 33,5 km/h (5 Bft)
25.07.2015 11:14 18,0 C 16,1 C 85 % 0 lf 999,8 hPa 0,0 l/m 0 min 0 min 91 W/m 37,7 km/h (5 Bft)
25.07.2015 11:16 17,9 C 16,1 C 85 % 0 lf 999,8 hPa 0,0 l/m 0 min 0 min 79 W/m 35,6 km/h (5 Bft)
25.07.2015 11:18 17,8 C 16,1 C 85 % 0 lf 999,8 hPa 0,0 l/m 0 min 0 min 60 W/m 39,7 km/h (6 Bft)
25.07.2015 11:20 17,8 C 15,6 C 85 % 0 lf 1000,0 hPa 0,0 l/m 0 min 0 min 71 W/m 43,9 km/h (6 Bft)
25.07.2015 11:22 17,7 C 15,6 C 85 % 3 lf 1000,0 hPa 0,0 l/m 0 min 2 min 115 W/m 41,8 km/h (6 Bft)
25.07.2015 11:24 17,7 C 15,6 C 85 % 0 lf 1000,0 hPa 0,0 l/m 0 min 2 min 119 W/m 31,4 km/h (5 Bft)
25.07.2015 11:26 17,6 C 15,6 C 86 % 1 lf 1000,0 hPa 0,0 l/m 0 min 0 min 80 W/m 27,2 km/h (4 Bft)
25.07.2015 11:28 17,6 C 15,6 C 86 % 1 lf 1000,1 hPa 0,0 l/m 0 min 2 min 52 W/m 31,4 km/h (5 Bft)
25.07.2015 11:30 17,5 C 15,6 C 86 % 8 lf 1000,1 hPa 0,0 l/m 0 min 2 min 66 W/m 46,0 km/h (6 Bft)
25.07.2015 11:32 17,4 C 15,0 C 86 % 15 lf 1000,2 hPa 0,0 l/m 0 min 2 min 91 W/m 37,7 km/h (5 Bft)
25.07.2015 11:34 17,3 C 14,4 C 87 % 15 lf 1000,3 hPa 0,0 l/m 0 min 2 min 79 W/m 39,7 km/h (6 Bft)
25.07.2015 11:36 17,2 C 14,4 C 87 % 15 lf 1000,3 hPa 0,0 l/m 0 min 2 min 78 W/m 39,7 km/h (6 Bft)
25.07.2015 11:38 17,0 C 14,4 C 87 % 15 lf 1000,4 hPa 0,0 l/m 0 min 2 min 70 W/m 41,8 km/h (6 Bft)
25.07.2015 11:40 16,9 C 13,9 C 88 % 15 lf 1000,5 hPa 0,2 l/m 0 min 2 min 60 W/m 56,5 km/h (7 Bft)
25.07.2015 11:42 16,7 C 13,9 C 88 % 15 lf 1000,6 hPa 0,0 l/m 0 min 2 min 89 W/m 54,4 km/h (7 Bft)
25.07.2015 11:44 16,6 C 13,9 C 89 % 15 lf 1000,9 hPa 0,0 l/m 0 min 2 min 160 W/m 50,2 km/h (7 Bft)
25.07.2015 11:46 16,4 C 14,4 C 90 % 15 lf 1001,0 hPa 0,0 l/m 0 min 2 min 157 W/m 33,5 km/h (5 Bft)
25.07.2015 11:48 16,3 C 14,4 C 90 % 15 lf 1000,9 hPa 0,0 l/m 0 min 0 min 157 W/m 35,6 km/h (5 Bft)
25.07.2015 11:50 16,2 C 13,9 C 90 % 15 lf 1001,0 hPa 0,0 l/m 0 min 2 min 136 W/m 33,5 km/h (5 Bft)
25.07.2015 11:52 16,1 C 13,9 C 91 % 15 lf 1001,1 hPa 0,0 l/m 0 min 2 min 124 W/m 31,4 km/h (5 Bft)
25.07.2015 11:54 16,1 C 13,9 C 91 % 15 lf 1001,3 hPa 0,0 l/m 0 min 2 min 146 W/m 35,6 km/h (5 Bft)
25.07.2015 11:56 16,0 C 14,4 C 91 % 15 lf 1001,4 hPa 0,0 l/m 0 min 2 min 235 W/m 37,7 km/h (5 Bft)
25.07.2015 11:58 15,9 C 14,4 C 92 % 15 lf 1001,2 hPa 0,0 l/m 0 min 2 min 196 W/m 29,3 km/h (5 Bft)
25.07.2015 12:00 15,9 C 14,4 C 92 % 15 lf 1001,5 hPa 0,0 l/m 0 min 0 min 168 W/m 41,8 km/h (6 Bft)
25.07.2015 12:02 15,8 C 14,4 C 92 % 15 lf 1001,6 hPa 0,0 l/m 0 min 2 min 181 W/m 35,6 km/h (5 Bft)
25.07.2015 12:05 15,8 C 13,9 C 92 % 15 lf 1001,8 hPa 0,0 l/m 0 min 2 min 209 W/m 35,6 km/h (5 Bft)
25.07.2015 12:08 15,7 C 14,4 C 92 % 15 lf 1001,9 hPa 0,2 l/m 0 min 2 min 195 W/m 35,6 km/h (5 Bft)
25.07.2015 12:10 15,7 C 14,4 C 93 % 15 lf 1001,9 hPa 0,0 l/m 0 min 2 min 232 W/m 27,2 km/h (4 Bft)
25.07.2015 12:12 15,7 C 13,9 C 93 % 15 lf 1002,0 hPa 0,0 l/m 0 min 2 min 296 W/m 33,5 km/h (5 Bft)
25.07.2015 12:14 15,7 C 14,4 C 93 % 15 lf 1002,0 hPa 0,0 l/m 0 min 2 min 364 W/m 41,8 km/h (6 Bft)
25.07.2015 12:16 15,7 C 14,4 C 93 % 15 lf 1002,1 hPa 0,0 l/m 2 min 2 min 421 W/m 43,9 km/h (6 Bft)
25.07.2015 12:18 15,8 C 15,0 C 93 % 15 lf 1002,1 hPa 0,0 l/m 2 min 2 min 424 W/m 41,8 km/h (6 Bft)
25.07.2015 12:20 15,8 C 15,0 C 93 % 15 lf 1002,2 hPa 0,0 l/m 0 min 2 min 343 W/m 29,3 km/h (5 Bft)
25.07.2015 12:22 15,9 C 14,4 C 93 % 15 lf 1002,2 hPa 0,0 l/m 0 min 2 min 302 W/m 37,7 km/h (5 Bft)
25.07.2015 12:24 15,9 C 14,4 C 93 % 15 lf 1002,3 hPa 0,0 l/m 0 min 2 min 234 W/m 39,7 km/h (6 Bft)
25.07.2015 12:26 15,8 C 14,4 C 93 % 15 lf 1002,3 hPa 0,0 l/m 0 min 2 min 163 W/m 50,2 km/h (7 Bft)
25.07.2015 12:28 15,8 C 14,4 C 93 % 15 lf 1002,4 hPa 0,0 l/m 0 min 2 min 327 W/m 39,7 km/h (6 Bft)
25.07.2015 12:30 15,9 C 14,4 C 93 % 15 lf 1002,4 hPa 0,0 l/m 0 min 2 min 297 W/m 43,9 km/h (6 Bft)
25.07.2015 12:32 15,9 C 14,4 C 93 % 15 lf 1002,5 hPa 0,0 l/m 2 min 2 min 432 W/m 48,1 km/h (6 Bft)
25.07.2015 12:34 15,9 C 15,0 C 93 % 15 lf 1002,5 hPa 0,0 l/m 2 min 2 min 508 W/m 46,0 km/h (6 Bft)
25.07.2015 12:36 16,0 C 15,0 C 93 % 15 lf 1002,5 hPa 0,0 l/m 2 min 2 min 568 W/m 46,0 km/h (6 Bft)
25.07.2015 12:38 16,0 C 14,4 C 93 % 15 lf 1002,7 hPa 0,0 l/m 0 min 2 min 314 W/m 52,3 km/h (7 Bft)
25.07.2015 12:40 15,9 C 14,4 C 92 % 15 lf 1002,6 hPa 0,0 l/m 0 min 2 min 196 W/m 43,9 km/h (6 Bft)
25.07.2015 12:42 15,9 C 14,4 C 92 % 15 lf 1002,6 hPa 0,0 l/m 0 min 2 min 220 W/m 33,5 km/h (5 Bft)
25.07.2015 12:44 15,9 C 14,4 C 92 % 15 lf 1002,5 hPa 0,0 l/m 0 min 2 min 340 W/m 39,7 km/h (6 Bft)
25.07.2015 12:46 16,0 C 14,4 C 92 % 15 lf 1002,7 hPa 0,0 l/m 0 min 2 min 359 W/m 39,7 km/h (6 Bft)
25.07.2015 12:48 16,0 C 14,4 C 92 % 15 lf 1002,7 hPa 0,0 l/m 0 min 2 min 350 W/m 39,7 km/h (6 Bft)
25.07.2015 12:50 16,0 C 14,4 C 92 % 15 lf 1002,9 hPa 0,0 l/m 0 min 2 min 339 W/m 37,7 km/h (5 Bft)
25.07.2015 12:52 16,0 C 14,4 C 92 % 15 lf 1002,7 hPa 0,0 l/m 0 min 2 min 361 W/m 43,9 km/h (6 Bft)
25.07.2015 12:54 16,0 C 14,4 C 92 % 15 lf 1002,9 hPa 0,0 l/m 0 min 0 min 396 W/m 43,9 km/h (6 Bft)
25.07.2015 12:56 16,0 C 14,4 C 92 % 15 lf 1003,0 hPa 0,0 l/m 0 min 0 min 369 W/m 35,6 km/h (5 Bft)
25.07.2015 12:58 16,0 C 15,0 C 92 % 15 lf 1002,8 hPa 0,0 l/m 0 min 0 min 379 W/m 39,7 km/h (6 Bft)
25.07.2015 13:00 16,1 C 15,0 C 92 % 15 lf 1003,0 hPa 0,0 l/m 2 min 0 min 442 W/m 33,5 km/h (5 Bft)
25.07.2015 13:02 16,2 C 15,6 C 92 % 15 lf 1003,1 hPa 0,0 l/m 2 min 0 min 621 W/m 33,5 km/h (5 Bft)
25.07.2015 13:04 16,3 C 15,6 C 92 % 14 lf 1003,0 hPa 0,0 l/m 2 min 0 min 493 W/m 43,9 km/h (6 Bft)
25.07.2015 13:06 16,4 C 15,6 C 91 % 4 lf 1003,0 hPa 0,0 l/m 2 min 0 min 488 W/m 43,9 km/h (6 Bft)
25.07.2015 13:08 16,4 C 15,0 C 91 % 0 lf 1003,0 hPa 0,0 l/m 2 min 0 min 626 W/m 48,1 km/h (6 Bft)
25.07.2015 13:10 16,4 C 15,0 C 90 % 0 lf 1002,9 hPa 0,0 l/m 0 min 0 min 275 W/m 37,7 km/h (5 Bft)
25.07.2015 13:12 16,4 C 15,0 C 90 % 0 lf 1003,0 hPa 0,0 l/m 0 min 0 min 289 W/m 35,6 km/h (5 Bft)
25.07.2015 13:14 16,4 C 15,0 C 90 % 7 lf 1002,9 hPa 0,0 l/m 0 min 0 min 287 W/m 39,7 km/h (6 Bft)
25.07.2015 13:16 16,4 C 14,4 C 89 % 0 lf 1003,1 hPa 0,0 l/m 0 min 0 min 200 W/m 37,7 km/h (5 Bft)
25.07.2015 13:18 16,4 C 14,4 C 89 % 8 lf 1003,2 hPa 0,0 l/m 0 min 0 min 222 W/m 43,9 km/h (6 Bft)
25.07.2015 13:20 16,4 C 14,4 C 88 % 3 lf 1003,1 hPa 0,0 l/m 0 min 2 min 210 W/m 46,0 km/h (6 Bft)
25.07.2015 13:22 16,3 C 13,9 C 88 % 3 lf 1003,2 hPa 0,0 l/m 0 min 2 min 208 W/m 43,9 km/h (6 Bft)
25.07.2015 13:24 16,3 C 14,4 C 88 % 15 lf 1003,3 hPa 0,0 l/m 0 min 2 min 282 W/m 64,9 km/h (8 Bft)
25.07.2015 13:26 16,3 C 15,0 C 88 % 15 lf 1003,9 hPa 0,0 l/m 2 min 0 min 471 W/m 60,7 km/h (7 Bft)
25.07.2015 13:28 16,3 C 15,6 C 88 % 15 lf 1003,5 hPa 0,0 l/m 2 min 0 min 480 W/m 64,9 km/h (8 Bft)
25.07.2015 13:30 16,4 C 15,6 C 89 % 15 lf 1003,4 hPa 0,0 l/m 2 min 0 min 902 W/m 48,1 km/h (6 Bft)
25.07.2015 13:32 16,6 C 15,6 C 89 % 15 lf 1003,7 hPa 0,0 l/m 2 min 0 min 902 W/m 46,0 km/h (6 Bft)
25.07.2015 13:34 16,6 C 15,0 C 88 % 15 lf 1003,7 hPa 0,0 l/m 2 min 2 min 600 W/m 41,8 km/h (6 Bft)
25.07.2015 13:36 16,7 C 14,4 C 89 % 15 lf 1003,8 hPa 0,0 l/m 0 min 2 min 204 W/m 43,9 km/h (6 Bft)
25.07.2015 13:38 16,6 C 14,4 C 88 % 15 lf 1003,9 hPa 0,0 l/m 0 min 2 min 161 W/m 37,7 km/h (5 Bft)
25.07.2015 13:40 16,5 C 13,9 C 88 % 15 lf 1004,0 hPa 0,2 l/m 0 min 2 min 116 W/m 43,9 km/h (6 Bft)
25.07.2015 13:42 16,3 C 13,9 C 88 % 15 lf 1003,8 hPa 0,0 l/m 0 min 2 min 90 W/m 52,3 km/h (7 Bft)
25.07.2015 13:44 16,2 C 13,9 C 89 % 15 lf 1004,0 hPa 0,0 l/m 0 min 2 min 146 W/m 46,0 km/h (6 Bft)
25.07.2015 13:46 16,1 C 13,9 C 89 % 15 lf 1003,8 hPa 0,0 l/m 0 min 2 min 202 W/m 33,5 km/h (5 Bft)
25.07.2015 13:48 15,9 C 13,9 C 89 % 15 lf 1003,9 hPa 0,0 l/m 0 min 2 min 163 W/m 41,8 km/h (6 Bft)
25.07.2015 13:50 15,8 C 13,9 C 90 % 15 lf 1004,1 hPa 0,0 l/m 0 min 2 min 204 W/m 52,3 km/h (7 Bft)
25.07.2015 13:52 15,7 C 13,9 C 90 % 15 lf 1003,9 hPa 0,0 l/m 0 min 2 min 194 W/m 43,9 km/h (6 Bft)
25.07.2015 13:54 15,7 C 13,3 C 90 % 15 lf 1004,0 hPa 0,0 l/m 0 min 2 min 121 W/m 64,9 km/h (8 Bft)
25.07.2015 13:56 15,6 C 13,3 C 90 % 15 lf 1004,2 hPa 0,0 l/m 0 min 2 min 74 W/m 41,8 km/h (6 Bft)
25.07.2015 13:58 15,5 C 13,3 C 90 % 15 lf 1004,1 hPa 0,0 l/m 0 min 2 min 117 W/m 31,4 km/h (5 Bft)
25.07.2015 14:00 15,4 C 13,3 C 91 % 15 lf 1004,4 hPa 0,0 l/m 0 min 2 min 173 W/m 60,7 km/h (7 Bft)
25.07.2015 14:02 15,4 C 13,3 C 91 % 15 lf 1004,2 hPa 0,0 l/m 0 min 2 min 164 W/m 50,2 km/h (7 Bft)
25.07.2015 14:04 15,4 C 13,9 C 91 % 15 lf 1004,3 hPa 0,0 l/m 0 min 2 min 234 W/m 58,6 km/h (7 Bft)
25.07.2015 14:06 15,3 C 13,3 C 91 % 15 lf 1004,2 hPa 0,0 l/m 0 min 0 min 213 W/m 41,8 km/h (6 Bft)
25.07.2015 14:08 15,3 C 13,3 C 91 % 15 lf 1004,5 hPa 0,0 l/m 0 min 0 min 163 W/m 48,1 km/h (6 Bft)
25.07.2015 14:10 15,3 C 13,9 C 91 % 15 lf 1004,5 hPa 0,0 l/m 0 min 0 min 197 W/m 56,5 km/h (7 Bft)
25.07.2015 14:12 15,2 C 13,3 C 91 % 15 lf 1004,7 hPa 0,0 l/m 0 min 0 min 174 W/m 62,8 km/h (8 Bft)
25.07.2015 14:14 15,2 C 13,9 C 91 % 15 lf 1004,7 hPa 0,0 l/m 0 min 2 min 233 W/m 54,4 km/h (7 Bft)
25.07.2015 14:16 15,3 C 13,9 C 91 % 15 lf 1004,7 hPa 0,0 l/m 0 min 0 min 206 W/m 41,8 km/h (6 Bft)
25.07.2015 14:18 15,2 C 13,3 C 91 % 15 lf 1004,8 hPa 0,0 l/m 0 min 2 min 128 W/m 41,8 km/h (6 Bft)
25.07.2015 14:20 15,2 C 13,3 C 91 % 15 lf 1004,9 hPa 0,0 l/m 0 min 2 min 102 W/m 52,3 km/h (7 Bft)
25.07.2015 14:22 15,2 C 13,3 C 91 % 15 lf 1004,9 hPa 0,0 l/m 0 min 2 min 120 W/m 52,3 km/h (7 Bft)
25.07.2015 14:24 15,1 C 13,3 C 91 % 15 lf 1005,1 hPa 0,2 l/m 0 min 2 min 130 W/m 50,2 km/h (7 Bft)
25.07.2015 14:26 15,1 C 13,3 C 91 % 15 lf 1005,3 hPa 0,0 l/m 0 min 2 min 165 W/m 54,4 km/h (7 Bft)
25.07.2015 14:28 15,1 C 13,3 C 91 % 15 lf 1005,4 hPa 0,0 l/m 0 min 2 min 288 W/m 52,3 km/h (7 Bft)
25.07.2015 14:30 15,1 C 13,3 C 90 % 15 lf 1005,2 hPa 0,0 l/m 0 min 2 min 309 W/m 48,1 km/h (6 Bft)
25.07.2015 14:32 15,2 C 13,3 C 91 % 15 lf 1005,3 hPa 0,0 l/m 0 min 2 min 197 W/m 48,1 km/h (6 Bft)
25.07.2015 14:34 15,2 C 13,3 C 91 % 15 lf 1005,2 hPa 0,0 l/m 0 min 0 min 143 W/m 35,6 km/h (5 Bft)
25.07.2015 14:36 15,2 C 13,3 C 91 % 15 lf 1005,4 hPa 0,0 l/m 0 min 0 min 139 W/m 56,5 km/h (7 Bft)
25.07.2015 14:38 15,2 C 13,3 C 90 % 15 lf 1005,5 hPa 0,0 l/m 0 min 0 min 156 W/m 37,7 km/h (5 Bft)
25.07.2015 14:40 15,2 C 13,3 C 91 % 15 lf 1005,6 hPa 0,0 l/m 0 min 0 min 113 W/m 35,6 km/h (5 Bft)
25.07.2015 14:42 15,1 C 12,8 C 90 % 15 lf 1005,6 hPa 0,0 l/m 0 min 2 min 76 W/m 46,0 km/h (6 Bft)
25.07.2015 14:44 15,1 C 12,8 C 90 % 15 lf 1005,7 hPa 0,0 l/m 0 min 2 min 59 W/m 43,9 km/h (6 Bft)
25.07.2015 14:46 15,0 C 12,8 C 90 % 15 lf 1005,8 hPa 0,0 l/m 0 min 2 min 109 W/m 52,3 km/h (7 Bft)
25.07.2015 14:48 15,0 C 13,3 C 91 % 15 lf 1005,7 hPa 0,0 l/m 0 min 2 min 166 W/m 46,0 km/h (6 Bft)
25.07.2015 14:50 14,9 C 13,3 C 91 % 15 lf 1005,7 hPa 0,0 l/m 0 min 0 min 165 W/m 35,6 km/h (5 Bft)
25.07.2015 14:52 14,9 C 12,8 C 91 % 15 lf 1005,8 hPa 0,0 l/m 0 min 2 min 88 W/m 41,8 km/h (6 Bft)
25.07.2015 14:54 14,9 C 12,8 C 91 % 15 lf 1006,0 hPa 0,2 l/m 0 min 2 min 98 W/m 54,4 km/h (7 Bft)
25.07.2015 14:56 14,8 C 12,8 C 91 % 15 lf 1006,0 hPa 0,0 l/m 0 min 2 min 96 W/m 39,7 km/h (6 Bft)
25.07.2015 14:58 14,8 C 12,8 C 91 % 15 lf 1006,1 hPa 0,2 l/m 0 min 2 min 68 W/m 31,4 km/h (5 Bft)
25.07.2015 15:00 14,7 C 12,8 C 91 % 15 lf 1006,3 hPa 0,0 l/m 0 min 2 min 61 W/m 48,1 km/h (6 Bft)
25.07.2015 15:02 14,6 C 12,8 C 92 % 15 lf 1006,2 hPa 0,0 l/m 0 min 2 min 63 W/m 41,8 km/h (6 Bft)
25.07.2015 15:04 14,5 C 12,8 C 92 % 15 lf 1006,2 hPa 0,0 l/m 0 min 2 min 62 W/m 43,9 km/h (6 Bft)
25.07.2015 15:06 14,4 C 12,8 C 92 % 15 lf 1006,4 hPa 0,0 l/m 0 min 2 min 75 W/m 41,8 km/h (6 Bft)
25.07.2015 15:08 14,3 C 12,8 C 92 % 15 lf 1006,4 hPa 0,0 l/m 0 min 0 min 101 W/m 48,1 km/h (6 Bft)
25.07.2015 15:10 14,2 C 12,8 C 92 % 15 lf 1006,4 hPa 0,0 l/m 0 min 0 min 138 W/m 46,0 km/h (6 Bft)
25.07.2015 15:12 14,2 C 12,8 C 92 % 15 lf 1006,4 hPa 0,0 l/m 0 min 2 min 177 W/m 46,0 km/h (6 Bft)
25.07.2015 15:14 14,2 C 12,8 C 93 % 15 lf 1006,4 hPa 0,0 l/m 0 min 2 min 208 W/m 39,7 km/h (6 Bft)
25.07.2015 15:16 14,2 C 12,8 C 93 % 15 lf 1006,3 hPa 0,0 l/m 0 min 0 min 184 W/m 35,6 km/h (5 Bft)
25.07.2015 15:18 14,2 C 12,8 C 93 % 15 lf 1006,4 hPa 0,0 l/m 0 min 0 min 145 W/m 43,9 km/h (6 Bft)
25.07.2015 15:20 14,2 C 12,8 C 93 % 15 lf 1006,4 hPa 0,0 l/m 0 min 0 min 158 W/m 35,6 km/h (5 Bft)
25.07.2015 15:22 14,2 C 12,8 C 93 % 15 lf 1006,4 hPa 0,0 l/m 0 min 0 min 119 W/m 35,6 km/h (5 Bft)
25.07.2015 15:24 14,2 C 12,8 C 93 % 15 lf 1006,6 hPa 0,0 l/m 0 min 0 min 156 W/m 48,1 km/h (6 Bft)
25.07.2015 15:26 14,2 C 12,8 C 93 % 15 lf 1006,5 hPa 0,0 l/m 0 min 0 min 189 W/m 54,4 km/h (7 Bft)
25.07.2015 15:28 14,2 C 12,8 C 93 % 15 lf 1006,7 hPa 0,0 l/m 0 min 0 min 195 W/m 35,6 km/h (5 Bft)
25.07.2015 15:30 14,2 C 12,8 C 93 % 15 lf 1006,8 hPa 0,0 l/m 0 min 0 min 148 W/m 54,4 km/h (7 Bft)
25.07.2015 15:32 14,2 C 12,8 C 92 % 15 lf 1006,8 hPa 0,0 l/m 0 min 2 min 119 W/m 46,0 km/h (6 Bft)
25.07.2015 15:34 14,2 C 12,8 C 92 % 15 lf 1006,9 hPa 0,0 l/m 0 min 0 min 117 W/m 43,9 km/h (6 Bft)
25.07.2015 15:36 14,2 C 12,8 C 92 % 15 lf 1007,1 hPa 0,0 l/m 0 min 0 min 161 W/m 50,2 km/h (7 Bft)
25.07.2015 15:38 14,3 C 12,8 C 92 % 15 lf 1007,1 hPa 0,0 l/m 0 min 0 min 200 W/m 50,2 km/h (7 Bft)
25.07.2015 15:40 14,3 C 13,3 C 91 % 15 lf 1007,1 hPa 0,0 l/m 0 min 2 min 254 W/m 43,9 km/h (6 Bft)
25.07.2015 15:42 14,4 C 13,3 C 91 % 15 lf 1007,0 hPa 0,0 l/m 0 min 0 min 262 W/m 41,8 km/h (6 Bft)
25.07.2015 15:44 14,4 C 13,3 C 91 % 15 lf 1007,0 hPa 0,0 l/m 0 min 0 min 264 W/m 48,1 km/h (6 Bft)
25.07.2015 15:46 14,5 C 13,3 C 91 % 15 lf 1007,1 hPa 0,0 l/m 0 min 0 min 205 W/m 33,5 km/h (5 Bft)
25.07.2015 15:48 14,6 C 12,8 C 90 % 15 lf 1007,1 hPa 0,0 l/m 0 min 0 min 164 W/m 37,7 km/h (5 Bft)
25.07.2015 15:50 14,6 C 12,8 C 90 % 15 lf 1007,1 hPa 0,0 l/m 0 min 0 min 147 W/m 50,2 km/h (7 Bft)
25.07.2015 15:52 14,6 C 13,3 C 90 % 15 lf 1007,1 hPa 0,0 l/m 0 min 0 min 209 W/m 48,1 km/h (6 Bft)
25.07.2015 15:54 14,7 C 12,8 C 90 % 15 lf 1007,3 hPa 0,0 l/m 0 min 0 min 209 W/m 46,0 km/h (6 Bft)
25.07.2015 15:56 14,7 C 12,8 C 89 % 15 lf 1007,3 hPa 0,0 l/m 0 min 0 min 133 W/m 43,9 km/h (6 Bft)
25.07.2015 15:58 14,7 C 12,8 C 89 % 13 lf 1007,3 hPa 0,0 l/m 0 min 0 min 158 W/m 52,3 km/h (7 Bft)
25.07.2015 16:00 14,7 C 12,8 C 88 % 5 lf 1007,3 hPa 0,0 l/m 0 min 0 min 174 W/m 52,3 km/h (7 Bft)
25.07.2015 16:02 14,8 C 12,8 C 88 % 2 lf 1007,4 hPa 0,0 l/m 0 min 0 min 148 W/m 35,6 km/h (5 Bft)
25.07.2015 16:04 14,8 C 12,8 C 88 % 0 lf 1007,3 hPa 0,0 l/m 0 min 0 min 142 W/m 50,2 km/h (7 Bft)
25.07.2015 16:06 14,8 C 12,8 C 88 % 0 lf 1007,7 hPa 0,0 l/m 0 min 0 min 124 W/m 54,4 km/h (7 Bft)
25.07.2015 16:08 14,8 C 12,8 C 87 % 0 lf 1007,6 hPa 0,0 l/m 0 min 0 min 167 W/m 58,6 km/h (7 Bft)
25.07.2015 16:10 14,8 C 13,3 C 87 % 0 lf 1007,7 hPa 0,0 l/m 0 min 0 min 238 W/m 37,7 km/h (5 Bft)
25.07.2015 16:12 14,8 C 13,3 C 87 % 1 lf 1007,6 hPa 0,0 l/m 0 min 0 min 262 W/m 43,9 km/h (6 Bft)
25.07.2015 16:14 14,9 C 13,3 C 87 % 0 lf 1007,8 hPa 0,0 l/m 0 min 0 min 272 W/m 41,8 km/h (6 Bft)
25.07.2015 16:16 14,9 C 13,3 C 87 % 0 lf 1007,8 hPa 0,0 l/m 0 min 0 min 234 W/m 46,0 km/h (6 Bft)
25.07.2015 16:18 15,0 C 13,3 C 87 % 0 lf 1007,7 hPa 0,0 l/m 0 min 0 min 215 W/m 46,0 km/h (6 Bft)
25.07.2015 16:20 15,1 C 13,3 C 86 % 0 lf 1007,9 hPa 0,0 l/m 0 min 0 min 180 W/m 43,9 km/h (6 Bft)
25.07.2015 16:22 15,1 C 13,3 C 86 % 0 lf 1007,9 hPa 0,0 l/m 0 min 0 min 117 W/m 37,7 km/h (5 Bft)
25.07.2015 16:24 15,1 C 12,8 C 85 % 1 lf 1008,1 hPa 0,0 l/m 0 min 0 min 124 W/m 52,3 km/h (7 Bft)
25.07.2015 16:26 15,1 C 13,3 C 85 % 0 lf 1007,9 hPa 0,0 l/m 0 min 0 min 174 W/m 39,7 km/h (6 Bft)
25.07.2015 16:28 15,0 C 13,3 C 84 % 1 lf 1007,9 hPa 0,0 l/m 0 min 0 min 168 W/m 50,2 km/h (7 Bft)
25.07.2015 16:30 15,1 C 13,3 C 84 % 1 lf 1008,1 hPa 0,0 l/m 0 min 0 min 153 W/m 56,5 km/h (7 Bft)
25.07.2015 16:32 15,1 C 13,3 C 84 % 0 lf 1008,0 hPa 0,0 l/m 0 min 0 min 145 W/m 73,2 km/h (8 Bft)
25.07.2015 16:34 15,0 C 13,3 C 83 % 2 lf 1008,2 hPa 0,0 l/m 0 min 0 min 146 W/m 58,6 km/h (7 Bft)
25.07.2015 16:36 15,1 C 13,9 C 83 % 3 lf 1008,2 hPa 0,0 l/m 0 min 2 min 158 W/m 54,4 km/h (7 Bft)
25.07.2015 16:38 15,1 C 13,9 C 83 % 2 lf 1008,3 hPa 0,0 l/m 0 min 2 min 186 W/m 58,6 km/h (7 Bft)
25.07.2015 16:40 15,1 C 13,9 C 83 % 2 lf 1008,3 hPa 0,0 l/m 0 min 2 min 209 W/m 66,9 km/h (8 Bft)
25.07.2015 16:42 15,1 C 13,9 C 83 % 0 lf 1008,4 hPa 0,0 l/m 0 min 0 min 214 W/m 60,7 km/h (7 Bft)
25.07.2015 16:44 15,1 C 13,9 C 83 % 2 lf 1008,4 hPa 0,0 l/m 0 min 2 min 189 W/m 48,1 km/h (6 Bft)
25.07.2015 16:46 15,1 C 13,9 C 84 % 1 lf 1008,5 hPa 0,0 l/m 0 min 2 min 214 W/m 33,5 km/h (5 Bft)
25.07.2015 16:48 15,1 C 13,9 C 84 % 2 lf 1008,5 hPa 0,0 l/m 0 min 2 min 220 W/m 46,0 km/h (6 Bft)
25.07.2015 16:50 15,1 C 13,9 C 84 % 2 lf 1008,7 hPa 0,0 l/m 0 min 2 min 221 W/m 46,0 km/h (6 Bft)
25.07.2015 16:52 15,1 C 13,9 C 83 % 2 lf 1008,5 hPa 0,0 l/m 0 min 0 min 207 W/m 46,0 km/h (6 Bft)
25.07.2015 16:54 15,1 C 13,9 C 84 % 2 lf 1008,8 hPa 0,0 l/m 0 min 0 min 169 W/m 39,7 km/h (6 Bft)
25.07.2015 16:56 15,1 C 13,9 C 84 % 3 lf 1008,6 hPa 0,0 l/m 0 min 0 min 149 W/m 46,0 km/h (6 Bft)
25.07.2015 16:58 15,1 C 13,9 C 84 % 3 lf 1008,7 hPa 0,0 l/m 0 min 2 min 140 W/m 31,4 km/h (5 Bft)
25.07.2015 17:00 15,1 C 13,3 C 84 % 4 lf 1008,9 hPa 0,0 l/m 0 min 2 min 109 W/m 46,0 km/h (6 Bft)
25.07.2015 17:02 15,0 C 13,3 C 84 % 5 lf 1008,8 hPa 0,0 l/m 0 min 2 min 82 W/m 39,7 km/h (6 Bft)
25.07.2015 17:04 15,0 C 13,3 C 84 % 9 lf 1009,0 hPa 0,0 l/m 0 min 2 min 105 W/m 33,5 km/h (5 Bft)
25.07.2015 17:06 14,9 C 13,3 C 84 % 6 lf 1009,0 hPa 0,0 l/m 0 min 2 min 108 W/m 31,4 km/h (5 Bft)
25.07.2015 17:08 14,9 C 13,3 C 84 % 5 lf 1009,1 hPa 0,0 l/m 0 min 2 min 102 W/m 33,5 km/h (5 Bft)
25.07.2015 17:10 14,9 C 12,8 C 84 % 5 lf 1009,1 hPa 0,0 l/m 0 min 2 min 87 W/m 37,7 km/h (5 Bft)
25.07.2015 17:12 14,8 C 12,8 C 85 % 11 lf 1009,1 hPa 0,2 l/m 0 min 2 min 84 W/m 41,8 km/h (6 Bft)
25.07.2015 17:14 14,8 C 12,8 C 85 % 14 lf 1009,1 hPa 0,0 l/m 0 min 2 min 56 W/m 39,7 km/h (6 Bft)
25.07.2015 17:16 14,7 C 12,8 C 85 % 12 lf 1009,1 hPa 0,0 l/m 0 min 2 min 84 W/m 50,2 km/h (7 Bft)
25.07.2015 17:18 14,7 C 12,8 C 85 % 12 lf 1009,3 hPa 0,0 l/m 0 min 2 min 139 W/m 41,8 km/h (6 Bft)
25.07.2015 17:20 14,6 C 12,8 C 85 % 13 lf 1009,4 hPa 0,0 l/m 0 min 2 min 154 W/m 54,4 km/h (7 Bft)
25.07.2015 17:22 14,6 C 13,3 C 85 % 13 lf 1009,3 hPa 0,0 l/m 0 min 2 min 159 W/m 56,5 km/h (7 Bft)
25.07.2015 17:24 14,6 C 12,8 C 86 % 14 lf 1009,4 hPa 0,0 l/m 0 min 2 min 151 W/m 48,1 km/h (6 Bft)
25.07.2015 17:26 14,6 C 12,8 C 86 % 15 lf 1009,4 hPa 0,0 l/m 0 min 2 min 147 W/m 35,6 km/h (5 Bft)
25.07.2015 17:28 14,6 C 12,8 C 86 % 15 lf 1009,5 hPa 0,0 l/m 0 min 2 min 121 W/m 29,3 km/h (5 Bft)
25.07.2015 17:30 14,6 C 12,8 C 87 % 15 lf 1009,6 hPa 0,0 l/m 0 min 2 min 85 W/m 29,3 km/h (5 Bft)
25.07.2015 17:32 14,6 C 12,2 C 87 % 15 lf 1009,6 hPa 0,0 l/m 0 min 2 min 88 W/m 33,5 km/h (5 Bft)
25.07.2015 17:34 14,6 C 12,2 C 87 % 15 lf 1009,6 hPa 0,0 l/m 0 min 2 min 110 W/m 35,6 km/h (5 Bft)
25.07.2015 17:36 14,6 C 12,2 C 87 % 15 lf 1009,7 hPa 0,0 l/m 0 min 2 min 112 W/m 33,5 km/h (5 Bft)
25.07.2015 17:38 14,5 C 12,8 C 88 % 15 lf 1009,7 hPa 0,0 l/m 0 min 2 min 95 W/m 33,5 km/h (5 Bft)
25.07.2015 17:40 14,5 C 12,8 C 88 % 15 lf 1009,9 hPa 0,0 l/m 0 min 2 min 99 W/m 39,7 km/h (6 Bft)
25.07.2015 17:42 14,4 C 12,8 C 88 % 15 lf 1009,7 hPa 0,0 l/m 0 min 2 min 101 W/m 56,5 km/h (7 Bft)
25.07.2015 17:44 14,4 C 12,8 C 88 % 15 lf 1009,9 hPa 0,0 l/m 0 min 2 min 82 W/m 43,9 km/h (6 Bft)
25.07.2015 17:46 14,3 C 12,8 C 88 % 15 lf 1010,0 hPa 0,0 l/m 0 min 0 min 96 W/m 31,4 km/h (5 Bft)
25.07.2015 17:48 14,3 C 12,8 C 88 % 15 lf 1010,0 hPa 0,0 l/m 0 min 0 min 127 W/m 37,7 km/h (5 Bft)
25.07.2015 17:50 14,3 C 12,8 C 89 % 15 lf 1010,1 hPa 0,0 l/m 0 min 0 min 135 W/m 37,7 km/h (5 Bft)
25.07.2015 17:52 14,3 C 12,8 C 88 % 15 lf 1010,0 hPa 0,0 l/m 0 min 0 min 141 W/m 41,8 km/h (6 Bft)
25.07.2015 17:54 14,3 C 13,3 C 88 % 13 lf 1010,1 hPa 0,0 l/m 0 min 0 min 114 W/m 39,7 km/h (6 Bft)
25.07.2015 17:56 14,3 C 13,3 C 88 % 7 lf 1010,2 hPa 0,0 l/m 0 min 0 min 120 W/m 37,7 km/h (5 Bft)
25.07.2015 17:58 14,3 C 13,3 C 88 % 2 lf 1010,2 hPa 0,0 l/m 0 min 0 min 146 W/m 48,1 km/h (6 Bft)
25.07.2015 18:00 14,3 C 13,3 C 88 % 0 lf 1010,3 hPa 0,0 l/m 0 min 0 min 135 W/m 35,6 km/h (5 Bft)
25.07.2015 18:02 14,3 C 13,3 C 88 % 0 lf 1010,3 hPa 0,0 l/m 0 min 0 min 158 W/m 37,7 km/h (5 Bft)
25.07.2015 18:05 14,3 C 13,9 C 88 % 0 lf 1010,3 hPa 0,0 l/m 0 min 0 min 204 W/m 46,0 km/h (6 Bft)
25.07.2015 18:10 14,4 C 13,9 C 87 % 0 lf 1010,4 hPa 0,0 l/m 0 min 0 min 192 W/m 46,0 km/h (6 Bft)
25.07.2015 18:12 14,5 C 13,9 C 87 % 0 lf 1010,5 hPa 0,0 l/m 0 min 0 min 215 W/m 39,7 km/h (6 Bft)
25.07.2015 18:14 14,5 C 13,9 C 87 % 0 lf 1010,5 hPa 0,0 l/m 0 min 0 min 210 W/m 33,5 km/h (5 Bft)
25.07.2015 18:16 14,6 C 13,9 C 87 % 0 lf 1010,5 hPa 0,0 l/m 0 min 0 min 156 W/m 43,9 km/h (6 Bft)
25.07.2015 18:18 14,6 C 13,9 C 86 % 0 lf 1010,5 hPa 0,0 l/m 0 min 0 min 169 W/m 37,7 km/h (5 Bft)
25.07.2015 18:20 14,7 C 13,9 C 86 % 0 lf 1010,5 hPa 0,0 l/m 0 min 0 min 195 W/m 48,1 km/h (6 Bft)
25.07.2015 18:22 14,7 C 13,9 C 86 % 1 lf 1010,6 hPa 0,0 l/m 0 min 0 min 164 W/m 48,1 km/h (6 Bft)
25.07.2015 18:24 14,7 C 13,9 C 86 % 0 lf 1010,5 hPa 0,0 l/m 0 min 0 min 164 W/m 31,4 km/h (5 Bft)
25.07.2015 18:26 14,8 C 13,9 C 86 % 0 lf 1010,6 hPa 0,0 l/m 0 min 0 min 121 W/m 33,5 km/h (5 Bft)
25.07.2015 18:28 14,8 C 13,9 C 86 % 0 lf 1010,7 hPa 0,0 l/m 0 min 0 min 100 W/m 23,0 km/h (4 Bft)
25.07.2015 18:30 14,8 C 13,9 C 86 % 0 lf 1010,6 hPa 0,0 l/m 0 min 0 min 72 W/m 48,1 km/h (6 Bft)
25.07.2015 18:32 14,8 C 13,9 C 85 % 0 lf 1010,7 hPa 0,0 l/m 0 min 0 min 62 W/m 39,7 km/h (6 Bft)
25.07.2015 18:34 14,8 C 13,9 C 85 % 0 lf 1010,8 hPa 0,0 l/m 0 min 0 min 106 W/m 33,5 km/h (5 Bft)
25.07.2015 18:36 14,8 C 13,9 C 85 % 0 lf 1010,8 hPa 0,0 l/m 0 min 0 min 165 W/m 43,9 km/h (6 Bft)
25.07.2015 18:38 14,8 C 13,9 C 85 % 0 lf 1010,8 hPa 0,0 l/m 0 min 0 min 179 W/m 54,4 km/h (7 Bft)
25.07.2015 18:40 14,8 C 13,9 C 85 % 0 lf 1010,8 hPa 0,0 l/m 0 min 0 min 142 W/m 37,7 km/h (5 Bft)
25.07.2015 18:42 14,9 C 13,9 C 85 % 0 lf 1010,9 hPa 0,0 l/m 0 min 0 min 119 W/m 46,0 km/h (6 Bft)
25.07.2015 18:44 14,9 C 14,4 C 85 % 0 lf 1011,0 hPa 0,0 l/m 0 min 0 min 150 W/m 50,2 km/h (7 Bft)
25.07.2015 18:46 14,9 C 14,4 C 85 % 2 lf 1011,0 hPa 0,0 l/m 0 min 0 min 162 W/m 31,4 km/h (5 Bft)
25.07.2015 18:48 14,9 C 13,9 C 85 % 0 lf 1011,1 hPa 0,0 l/m 0 min 0 min 169 W/m 60,7 km/h (7 Bft)
25.07.2015 18:50 14,9 C 13,9 C 85 % 3 lf 1011,2 hPa 0,0 l/m 0 min 2 min 166 W/m 35,6 km/h (5 Bft)
25.07.2015 18:52 14,9 C 13,9 C 85 % 0 lf 1011,2 hPa 0,0 l/m 0 min 0 min 167 W/m 31,4 km/h (5 Bft)
25.07.2015 18:54 14,9 C 13,9 C 85 % 0 lf 1011,3 hPa 0,0 l/m 0 min 2 min 165 W/m 37,7 km/h (5 Bft)
25.07.2015 18:56 14,9 C 14,4 C 85 % 0 lf 1011,4 hPa 0,0 l/m 2 min 0 min 240 W/m 33,5 km/h (5 Bft)
25.07.2015 18:58 15,0 C 14,4 C 85 % 2 lf 1011,4 hPa 0,0 l/m 2 min 0 min 218 W/m 31,4 km/h (5 Bft)
25.07.2015 19:00 15,0 C 14,4 C 86 % 0 lf 1011,5 hPa 0,0 l/m 2 min 0 min 188 W/m 27,2 km/h (4 Bft)
25.07.2015 19:02 15,0 C 14,4 C 86 % 0 lf 1011,4 hPa 0,0 l/m 2 min 0 min 218 W/m 27,2 km/h (4 Bft)
25.07.2015 19:04 15,0 C 14,4 C 86 % 0 lf 1011,5 hPa 0,0 l/m 2 min 0 min 214 W/m 50,2 km/h (7 Bft)
25.07.2015 19:06 15,0 C 14,4 C 85 % 0 lf 1011,5 hPa 0,0 l/m 2 min 0 min 226 W/m 41,8 km/h (6 Bft)
25.07.2015 19:08 14,9 C 14,4 C 85 % 0 lf 1011,6 hPa 0,0 l/m 2 min 0 min 194 W/m 39,7 km/h (6 Bft)
25.07.2015 19:10 14,9 C 14,4 C 85 % 0 lf 1011,5 hPa 0,0 l/m 2 min 0 min 178 W/m 25,1 km/h (4 Bft)
25.07.2015 19:12 14,9 C 14,4 C 85 % 0 lf 1011,6 hPa 0,0 l/m 0 min 0 min 152 W/m 29,3 km/h (5 Bft)
25.07.2015 19:14 14,9 C 13,9 C 84 % 0 lf 1011,8 hPa 0,0 l/m 0 min 0 min 120 W/m 35,6 km/h (5 Bft)
25.07.2015 19:16 14,9 C 13,9 C 84 % 0 lf 1011,7 hPa 0,0 l/m 0 min 0 min 101 W/m 27,2 km/h (4 Bft)
25.07.2015 19:18 14,9 C 13,9 C 84 % 0 lf 1011,7 hPa 0,0 l/m 0 min 0 min 84 W/m 33,5 km/h (5 Bft)
25.07.2015 19:20 14,9 C 13,9 C 84 % 0 lf 1011,8 hPa 0,0 l/m 0 min 0 min 65 W/m 46,0 km/h (6 Bft)
25.07.2015 19:22 14,8 C 13,9 C 83 % 0 lf 1011,8 hPa 0,0 l/m 0 min 0 min 42 W/m 33,5 km/h (5 Bft)
25.07.2015 19:24 14,8 C 13,3 C 83 % 0 lf 1012,0 hPa 0,0 l/m 0 min 0 min 29 W/m 29,3 km/h (5 Bft)
25.07.2015 19:26 14,8 C 13,3 C 83 % 0 lf 1012,0 hPa 0,0 l/m 0 min 0 min 36 W/m 25,1 km/h (4 Bft)
25.07.2015 19:28 14,8 C 13,3 C 83 % 0 lf 1012,0 hPa 0,0 l/m 0 min 0 min 46 W/m 37,7 km/h (5 Bft)
25.07.2015 19:30 14,7 C 13,3 C 83 % 0 lf 1012,1 hPa 0,0 l/m 0 min 0 min 60 W/m 35,6 km/h (5 Bft)
25.07.2015 19:32 14,7 C 13,3 C 83 % 0 lf 1012,1 hPa 0,0 l/m 0 min 0 min 67 W/m 37,7 km/h (5 Bft)
25.07.2015 19:34 14,7 C 13,3 C 83 % 0 lf 1012,0 hPa 0,0 l/m 0 min 0 min 66 W/m 37,7 km/h (5 Bft)
25.07.2015 19:36 14,7 C 13,3 C 83 % 0 lf 1012,0 hPa 0,0 l/m 0 min 0 min 61 W/m 41,8 km/h (6 Bft)
25.07.2015 19:38 14,6 C 13,9 C 83 % 1 lf 1012,1 hPa 0,0 l/m 0 min 0 min 91 W/m 27,2 km/h (4 Bft)
25.07.2015 19:40 14,7 C 13,9 C 83 % 0 lf 1012,1 hPa 0,0 l/m 0 min 0 min 118 W/m 41,8 km/h (6 Bft)
25.07.2015 19:42 14,7 C 13,9 C 83 % 0 lf 1012,1 hPa 0,0 l/m 2 min 0 min 129 W/m 41,8 km/h (6 Bft)
25.07.2015 19:44 14,7 C 13,9 C 83 % 0 lf 1012,2 hPa 0,0 l/m 0 min 0 min 110 W/m 27,2 km/h (4 Bft)
25.07.2015 19:46 14,7 C 13,9 C 83 % 0 lf 1012,3 hPa 0,0 l/m 0 min 0 min 101 W/m 41,8 km/h (6 Bft)
25.07.2015 19:48 14,7 C 13,9 C 83 % 1 lf 1012,3 hPa 0,0 l/m 0 min 0 min 82 W/m 31,4 km/h (5 Bft)
25.07.2015 19:50 14,7 C 13,3 C 83 % 0 lf 1012,5 hPa 0,0 l/m 0 min 0 min 57 W/m 31,4 km/h (5 Bft)
25.07.2015 19:52 14,7 C 13,3 C 83 % 0 lf 1012,5 hPa 0,0 l/m 0 min 0 min 43 W/m 33,5 km/h (5 Bft)
25.07.2015 19:54 14,6 C 13,3 C 83 % 0 lf 1012,5 hPa 0,0 l/m 0 min 0 min 56 W/m 35,6 km/h (5 Bft)
25.07.2015 19:56 14,6 C 13,3 C 83 % 1 lf 1012,6 hPa 0,0 l/m 0 min 0 min 58 W/m 29,3 km/h (5 Bft)
25.07.2015 19:58 14,6 C 13,3 C 83 % 0 lf 1012,6 hPa 0,0 l/m 0 min 0 min 53 W/m 20,9 km/h (4 Bft)
25.07.2015 20:00 14,6 C 13,3 C 83 % 0 lf 1012,6 hPa 0,0 l/m 0 min 0 min 60 W/m 25,1 km/h (4 Bft)
25.07.2015 20:02 14,6 C 13,3 C 83 % 0 lf 1012,8 hPa 0,0 l/m 0 min 0 min 75 W/m 35,6 km/h (5 Bft)
25.07.2015 20:04 14,6 C 13,3 C 82 % 0 lf 1012,7 hPa 0,0 l/m 0 min 0 min 78 W/m 37,7 km/h (5 Bft)
25.07.2015 20:06 14,5 C 13,3 C 82 % 0 lf 1012,8 hPa 0,0 l/m 0 min 0 min 68 W/m 35,6 km/h (5 Bft)
25.07.2015 20:08 14,5 C 13,3 C 82 % 0 lf 1012,9 hPa 0,0 l/m 0 min 0 min 53 W/m 41,8 km/h (6 Bft)
25.07.2015 20:10 14,5 C 13,3 C 82 % 0 lf 1012,9 hPa 0,0 l/m 0 min 0 min 35 W/m 27,2 km/h (4 Bft)
25.07.2015 20:12 14,5 C 13,3 C 82 % 0 lf 1012,9 hPa 0,0 l/m 0 min 0 min 27 W/m 33,5 km/h (5 Bft)
25.07.2015 20:14 14,5 C 13,3 C 82 % 0 lf 1012,9 hPa 0,0 l/m 0 min 0 min 26 W/m 39,7 km/h (6 Bft)
25.07.2015 20:16 14,4 C 13,3 C 82 % 0 lf 1012,9 hPa 0,0 l/m 0 min 0 min 25 W/m 25,1 km/h (4 Bft)
25.07.2015 20:18 14,4 C 13,3 C 82 % 0 lf 1013,0 hPa 0,0 l/m 0 min 0 min 23 W/m 37,7 km/h (5 Bft)
25.07.2015 20:20 14,4 C 13,3 C 82 % 1 lf 1013,0 hPa 0,0 l/m 0 min 2 min 30 W/m 31,4 km/h (5 Bft)
25.07.2015 20:22 14,4 C 12,8 C 83 % 6 lf 1013,0 hPa 0,0 l/m 0 min 2 min 36 W/m 23,0 km/h (4 Bft)
25.07.2015 20:24 14,4 C 12,2 C 83 % 15 lf 1013,1 hPa 0,0 l/m 0 min 2 min 22 W/m 35,6 km/h (5 Bft)
25.07.2015 20:26 14,4 C 12,2 C 83 % 15 lf 1013,3 hPa 0,0 l/m 0 min 2 min 14 W/m 29,3 km/h (5 Bft)
25.07.2015 20:28 14,4 C 11,7 C 84 % 15 lf 1013,3 hPa 0,0 l/m 0 min 2 min 13 W/m 35,6 km/h (5 Bft)
25.07.2015 20:30 14,3 C 11,7 C 85 % 15 lf 1013,4 hPa 0,2 l/m 0 min 2 min 11 W/m 31,4 km/h (5 Bft)
25.07.2015 20:32 14,3 C 11,7 C 85 % 15 lf 1013,4 hPa 0,0 l/m 0 min 2 min 11 W/m 23,0 km/h (4 Bft)
25.07.2015 20:34 14,2 C 11,7 C 86 % 15 lf 1013,4 hPa 0,2 l/m 0 min 2 min 9 W/m 35,6 km/h (5 Bft)
25.07.2015 20:36 14,2 C 11,7 C 86 % 15 lf 1013,5 hPa 0,2 l/m 0 min 2 min 9 W/m 29,3 km/h (5 Bft)
25.07.2015 20:38 14,2 C 11,7 C 87 % 15 lf 1013,5 hPa 0,0 l/m 0 min 2 min 11 W/m 27,2 km/h (4 Bft)
25.07.2015 20:40 14,1 C 11,7 C 87 % 15 lf 1013,5 hPa 0,0 l/m 0 min 2 min 14 W/m 23,0 km/h (4 Bft)
25.07.2015 20:42 13,9 C 11,7 C 88 % 15 lf 1013,6 hPa 0,0 l/m 0 min 2 min 17 W/m 18,8 km/h (3 Bft)
25.07.2015 20:44 13,9 C 11,7 C 88 % 15 lf 1013,6 hPa 0,2 l/m 0 min 2 min 21 W/m 27,2 km/h (4 Bft)
25.07.2015 20:46 13,8 C 11,7 C 88 % 15 lf 1013,6 hPa 0,0 l/m 0 min 2 min 30 W/m 27,2 km/h (4 Bft)
25.07.2015 20:48 13,7 C 11,7 C 89 % 15 lf 1013,6 hPa 0,0 l/m 0 min 2 min 33 W/m 18,8 km/h (3 Bft)
25.07.2015 20:50 13,7 C 11,7 C 89 % 15 lf 1013,6 hPa 0,0 l/m 0 min 0 min 37 W/m 18,8 km/h (3 Bft)
25.07.2015 20:52 13,7 C 11,7 C 89 % 15 lf 1013,6 hPa 0,0 l/m 0 min 0 min 37 W/m 16,7 km/h (3 Bft)
25.07.2015 20:54 13,6 C 11,7 C 90 % 15 lf 1013,7 hPa 0,0 l/m 0 min 0 min 35 W/m 18,8 km/h (3 Bft)
25.07.2015 20:56 13,6 C 11,7 C 90 % 15 lf 1013,6 hPa 0,0 l/m 0 min 0 min 32 W/m 14,6 km/h (3 Bft)
25.07.2015 20:58 13,5 C 11,7 C 90 % 15 lf 1013,7 hPa 0,0 l/m 0 min 0 min 31 W/m 14,6 km/h (3 Bft)
25.07.2015 21:00 13,4 C 11,7 C 91 % 15 lf 1013,7 hPa 0,0 l/m 2 min 0 min 30 W/m 14,6 km/h (3 Bft)
25.07.2015 21:02 13,4 C 11,7 C 90 % 15 lf 1013,7 hPa 0,0 l/m 0 min 0 min 26 W/m 12,6 km/h (3 Bft)
25.07.2015 21:04 13,3 C 11,7 C 91 % 15 lf 1013,7 hPa 0,0 l/m 0 min 0 min 23 W/m 16,7 km/h (3 Bft)
25.07.2015 21:06 13,3 C 11,1 C 91 % 15 lf 1013,8 hPa 0,0 l/m 0 min 0 min 20 W/m 16,7 km/h (3 Bft)
25.07.2015 21:08 13,2 C 11,1 C 91 % 15 lf 1013,7 hPa 0,0 l/m 0 min 0 min 19 W/m 20,9 km/h (4 Bft)
25.07.2015 21:10 13,2 C 11,1 C 91 % 15 lf 1013,8 hPa 0,0 l/m 2 min 0 min 19 W/m 10,5 km/h (2 Bft)
25.07.2015 21:12 13,2 C 11,1 C 91 % 15 lf 1013,9 hPa 0,0 l/m 2 min 0 min 21 W/m 20,9 km/h (4 Bft)
25.07.2015 21:14 13,2 C 11,1 C 91 % 15 lf 1013,9 hPa 0,0 l/m 0 min 0 min 18 W/m 23,0 km/h (4 Bft)
25.07.2015 21:16 13,1 C 11,1 C 91 % 15 lf 1014,0 hPa 0,0 l/m 0 min 0 min 16 W/m 23,0 km/h (4 Bft)
25.07.2015 21:18 13,1 C 11,1 C 91 % 15 lf 1014,1 hPa 0,0 l/m 0 min 0 min 15 W/m 25,1 km/h (4 Bft)
25.07.2015 21:20 13,1 C 11,1 C 91 % 15 lf 1014,0 hPa 0,0 l/m 0 min 0 min 13 W/m 25,1 km/h (4 Bft)
25.07.2015 21:22 13,1 C 11,1 C 91 % 15 lf 1014,1 hPa 0,0 l/m 0 min 0 min 12 W/m 20,9 km/h (4 Bft)
25.07.2015 21:24 13,0 C 11,1 C 91 % 15 lf 1014,1 hPa 0,0 l/m 0 min 0 min 11 W/m 20,9 km/h (4 Bft)
25.07.2015 21:26 13,0 C 11,1 C 92 % 15 lf 1014,1 hPa 0,0 l/m 0 min 0 min 10 W/m 16,7 km/h (3 Bft)
25.07.2015 21:28 13,0 C 11,1 C 92 % 15 lf 1014,1 hPa 0,0 l/m 0 min 0 min 9 W/m 14,6 km/h (3 Bft)
25.07.2015 21:30 12,9 C 11,1 C 92 % 15 lf 1014,2 hPa 0,0 l/m 0 min 0 min 8 W/m 12,6 km/h (3 Bft)
25.07.2015 21:32 12,9 C 11,1 C 92 % 15 lf 1014,2 hPa 0,0 l/m 0 min 0 min 7 W/m 12,6 km/h (3 Bft)
25.07.2015 21:34 12,9 C 11,1 C 92 % 15 lf 1014,2 hPa 0,0 l/m 0 min 0 min 7 W/m 20,9 km/h (4 Bft)
25.07.2015 21:36 12,9 C 11,1 C 92 % 15 lf 1014,1 hPa 0,0 l/m 0 min 0 min 6 W/m 18,8 km/h (3 Bft)
25.07.2015 21:38 12,9 C 11,1 C 92 % 15 lf 1014,2 hPa 0,0 l/m 0 min 0 min 5 W/m 16,7 km/h (3 Bft)
25.07.2015 21:40 12,9 C 11,1 C 92 % 15 lf 1014,3 hPa 0,0 l/m 0 min 0 min 5 W/m 20,9 km/h (4 Bft)
25.07.2015 21:42 12,8 C 11,1 C 92 % 15 lf 1014,3 hPa 0,0 l/m 0 min 0 min 5 W/m 20,9 km/h (4 Bft)
25.07.2015 21:44 12,8 C 11,1 C 91 % 15 lf 1014,4 hPa 0,0 l/m 0 min 0 min 3 W/m 16,7 km/h (3 Bft)
25.07.2015 21:46 12,8 C 11,1 C 91 % 15 lf 1014,4 hPa 0,0 l/m 0 min 0 min 0 W/m 14,6 km/h (3 Bft)
25.07.2015 21:48 12,8 C 10,6 C 91 % 15 lf 1014,5 hPa 0,0 l/m 0 min 0 min 0 W/m 14,6 km/h (3 Bft)
25.07.2015 21:50 12,8 C 10,6 C 91 % 15 lf 1014,5 hPa 0,0 l/m 0 min 0 min 0 W/m 16,7 km/h (3 Bft)
25.07.2015 21:52 12,8 C 10,6 C 91 % 15 lf 1014,6 hPa 0,0 l/m 0 min 0 min 0 W/m 12,6 km/h (3 Bft)
25.07.2015 21:54 12,8 C 10,6 C 91 % 15 lf 1014,5 hPa 0,0 l/m 0 min 0 min 0 W/m 12,6 km/h (3 Bft)
25.07.2015 21:56 12,7 C 10,6 C 91 % 15 lf 1014,6 hPa 0,0 l/m 0 min 0 min 0 W/m 25,1 km/h (4 Bft)
25.07.2015 21:58 12,7 C 10,6 C 91 % 15 lf 1014,6 hPa 0,0 l/m 0 min 0 min 0 W/m 14,6 km/h (3 Bft)
25.07.2015 22:00 12,7 C 10,6 C 91 % 15 lf 1014,7 hPa 0,0 l/m 0 min 0 min 0 W/m 14,6 km/h (3 Bft)
25.07.2015 22:02 12,7 C 10,6 C 91 % 15 lf 1014,7 hPa 0,0 l/m 0 min 0 min 0 W/m 12,6 km/h (3 Bft)
25.07.2015 22:04 12,7 C 10,6 C 91 % 15 lf 1014,7 hPa 0,0 l/m 0 min 0 min 0 W/m 18,8 km/h (3 Bft)
25.07.2015 22:06 12,7 C 10,6 C 91 % 15 lf 1014,7 hPa 0,0 l/m 0 min 0 min 0 W/m 16,7 km/h (3 Bft)
25.07.2015 22:08 12,7 C 10,6 C 91 % 15 lf 1014,7 hPa 0,0 l/m 0 min 0 min 0 W/m 16,7 km/h (3 Bft)
25.07.2015 22:10 12,7 C 10,6 C 91 % 15 lf 1014,7 hPa 0,0 l/m 0 min 0 min 0 W/m 14,6 km/h (3 Bft)
25.07.2015 22:12 12,6 C 10,6 C 91 % 15 lf 1014,7 hPa 0,0 l/m 0 min 0 min 0 W/m 23,0 km/h (4 Bft)
25.07.2015 22:14 12,6 C 10,6 C 91 % 15 lf 1014,7 hPa 0,0 l/m 0 min 0 min 0 W/m 31,4 km/h (5 Bft)
25.07.2015 22:16 12,6 C 10,6 C 91 % 15 lf 1014,7 hPa 0,0 l/m 0 min 0 min 0 W/m 29,3 km/h (5 Bft)
25.07.2015 22:18 12,6 C 10,6 C 91 % 15 lf 1014,7 hPa 0,0 l/m 0 min 0 min 0 W/m 12,6 km/h (3 Bft)
25.07.2015 22:20 12,6 C 10,6 C 90 % 15 lf 1014,8 hPa 0,0 l/m 0 min 0 min 0 W/m 20,9 km/h (4 Bft)
25.07.2015 22:22 12,5 C 10,6 C 90 % 15 lf 1014,8 hPa 0,0 l/m 0 min 0 min 0 W/m 16,7 km/h (3 Bft)
25.07.2015 22:24 12,5 C 10,6 C 90 % 15 lf 1014,7 hPa 0,0 l/m 0 min 0 min 0 W/m 18,8 km/h (3 Bft)
25.07.2015 22:26 12,5 C 10,6 C 90 % 15 lf 1014,7 hPa 0,0 l/m 0 min 0 min 0 W/m 16,7 km/h (3 Bft)
25.07.2015 22:28 12,5 C 10,6 C 90 % 15 lf 1014,7 hPa 0,0 l/m 0 min 0 min 0 W/m 16,7 km/h (3 Bft)
25.07.2015 22:30 12,5 C 10,6 C 90 % 15 lf 1014,7 hPa 0,0 l/m 0 min 0 min 0 W/m 14,6 km/h (3 Bft)
25.07.2015 22:32 12,4 C 10,6 C 90 % 15 lf 1014,7 hPa 0,0 l/m 0 min 0 min 0 W/m 12,6 km/h (3 Bft)
25.07.2015 22:34 12,4 C 10,6 C 90 % 15 lf 1014,7 hPa 0,0 l/m 0 min 0 min 0 W/m 23,0 km/h (4 Bft)
25.07.2015 22:36 12,4 C 10,6 C 90 % 15 lf 1014,7 hPa 0,0 l/m 0 min 0 min 0 W/m 16,7 km/h (3 Bft)
25.07.2015 22:38 12,4 C 10,6 C 90 % 15 lf 1014,7 hPa 0,0 l/m 0 min 0 min 0 W/m 20,9 km/h (4 Bft)
25.07.2015 22:40 12,4 C 10,6 C 90 % 15 lf 1014,8 hPa 0,0 l/m 0 min 0 min 0 W/m 16,7 km/h (3 Bft)
25.07.2015 22:42 12,4 C 10,0 C 90 % 15 lf 1014,8 hPa 0,0 l/m 0 min 0 min 0 W/m 16,7 km/h (3 Bft)
25.07.2015 22:44 12,4 C 10,0 C 90 % 15 lf 1014,8 hPa 0,0 l/m 0 min 0 min 0 W/m 18,8 km/h (3 Bft)
25.07.2015 22:46 12,4 C 10,0 C 90 % 15 lf 1014,8 hPa 0,0 l/m 0 min 0 min 0 W/m 23,0 km/h (4 Bft)
25.07.2015 22:48 12,3 C 10,0 C 90 % 15 lf 1014,8 hPa 0,0 l/m 0 min 0 min 0 W/m 18,8 km/h (3 Bft)
25.07.2015 22:50 12,3 C 10,0 C 89 % 15 lf 1014,9 hPa 0,0 l/m 0 min 0 min 0 W/m 16,7 km/h (3 Bft)
25.07.2015 22:52 12,3 C 10,0 C 89 % 15 lf 1014,9 hPa 0,0 l/m 0 min 0 min 0 W/m 16,7 km/h (3 Bft)
25.07.2015 22:54 12,3 C 10,0 C 89 % 15 lf 1014,8 hPa 0,0 l/m 0 min 0 min 0 W/m 23,0 km/h (4 Bft)
25.07.2015 22:56 12,3 C 10,0 C 89 % 15 lf 1014,9 hPa 0,0 l/m 0 min 0 min 0 W/m 20,9 km/h (4 Bft)
25.07.2015 22:58 12,3 C 10,0 C 89 % 15 lf 1014,9 hPa 0,0 l/m 0 min 0 min 0 W/m 16,7 km/h (3 Bft)
25.07.2015 23:00 12,3 C 10,0 C 89 % 15 lf 1015,0 hPa 0,0 l/m 0 min 0 min 0 W/m 14,6 km/h (3 Bft)
25.07.2015 23:02 12,3 C 10,0 C 89 % 15 lf 1015,0 hPa 0,0 l/m 0 min 0 min 0 W/m 18,8 km/h (3 Bft)
25.07.2015 23:04 12,3 C 10,0 C 89 % 15 lf 1015,1 hPa 0,0 l/m 0 min 0 min 0 W/m 12,6 km/h (3 Bft)
25.07.2015 23:06 12,3 C 10,0 C 89 % 15 lf 1015,1 hPa 0,0 l/m 0 min 0 min 0 W/m 14,6 km/h (3 Bft)
25.07.2015 23:08 12,3 C 10,0 C 89 % 15 lf 1015,2 hPa 0,0 l/m 0 min 0 min 0 W/m 14,6 km/h (3 Bft)
25.07.2015 23:10 12,3 C 10,0 C 89 % 15 lf 1015,2 hPa 0,0 l/m 0 min 0 min 0 W/m 12,6 km/h (3 Bft)
25.07.2015 23:12 12,3 C 10,6 C 89 % 15 lf 1015,2 hPa 0,0 l/m 0 min 0 min 0 W/m 23,0 km/h (4 Bft)
25.07.2015 23:14 12,3 C 10,6 C 89 % 15 lf 1015,4 hPa 0,0 l/m 0 min 0 min 0 W/m 20,9 km/h (4 Bft)
25.07.2015 23:16 12,3 C 10,6 C 89 % 15 lf 1015,4 hPa 0,0 l/m 0 min 0 min 0 W/m 18,8 km/h (3 Bft)
25.07.2015 23:18 12,3 C 10,6 C 89 % 15 lf 1015,4 hPa 0,0 l/m 0 min 0 min 0 W/m 16,7 km/h (3 Bft)
25.07.2015 23:20 12,4 C 10,6 C 89 % 15 lf 1015,4 hPa 0,0 l/m 0 min 0 min 0 W/m 20,9 km/h (4 Bft)
25.07.2015 23:22 12,4 C 10,6 C 89 % 15 lf 1015,4 hPa 0,0 l/m 0 min 0 min 0 W/m 16,7 km/h (3 Bft)
25.07.2015 23:24 12,4 C 10,6 C 89 % 13 lf 1015,4 hPa 0,0 l/m 0 min 0 min 0 W/m 16,7 km/h (3 Bft)
25.07.2015 23:26 12,4 C 10,6 C 89 % 11 lf 1015,4 hPa 0,0 l/m 0 min 0 min 0 W/m 14,6 km/h (3 Bft)
25.07.2015 23:28 12,4 C 10,6 C 89 % 8 lf 1015,4 hPa 0,0 l/m 0 min 0 min 0 W/m 18,8 km/h (3 Bft)
25.07.2015 23:30 12,5 C 10,6 C 89 % 3 lf 1015,5 hPa 0,0 l/m 0 min 0 min 0 W/m 18,8 km/h (3 Bft)
25.07.2015 23:32 12,5 C 10,6 C 89 % 1 lf 1015,4 hPa 0,0 l/m 0 min 0 min 0 W/m 14,6 km/h (3 Bft)
25.07.2015 23:34 12,5 C 10,6 C 89 % 1 lf 1015,4 hPa 0,0 l/m 0 min 0 min 0 W/m 12,6 km/h (3 Bft)
25.07.2015 23:36 12,5 C 10,6 C 89 % 0 lf 1015,5 hPa 0,0 l/m 0 min 0 min 0 W/m 18,8 km/h (3 Bft)
25.07.2015 23:38 12,6 C 10,6 C 88 % 0 lf 1015,5 hPa 0,0 l/m 0 min 0 min 0 W/m 18,8 km/h (3 Bft)
25.07.2015 23:40 12,6 C 10,6 C 88 % 0 lf 1015,6 hPa 0,0 l/m 0 min 0 min 0 W/m 18,8 km/h (3 Bft)
25.07.2015 23:42 12,6 C 10,6 C 88 % 0 lf 1015,5 hPa 0,0 l/m 0 min 0 min 0 W/m 18,8 km/h (3 Bft)
25.07.2015 23:44 12,6 C 10,6 C 88 % 0 lf 1015,6 hPa 0,0 l/m 0 min 0 min 0 W/m 16,7 km/h (3 Bft)
25.07.2015 23:46 12,6 C 10,6 C 88 % 0 lf 1015,6 hPa 0,0 l/m 0 min 0 min 0 W/m 20,9 km/h (4 Bft)
25.07.2015 23:48 12,7 C 10,6 C 88 % 0 lf 1015,6 hPa 0,0 l/m 0 min 0 min 0 W/m 20,9 km/h (4 Bft)
25.07.2015 23:50 12,7 C 10,6 C 88 % 0 lf 1015,6 hPa 0,0 l/m 0 min 0 min 0 W/m 14,6 km/h (3 Bft)
25.07.2015 23:52 12,7 C 10,6 C 87 % 0 lf 1015,6 hPa 0,0 l/m 0 min 0 min 0 W/m 23,0 km/h (4 Bft)
25.07.2015 23:54 12,7 C 10,6 C 87 % 0 lf 1015,7 hPa 0,0 l/m 0 min 0 min 0 W/m 23,0 km/h (4 Bft)
25.07.2015 23:56 12,7 C 10,6 C 87 % 2 lf 1015,7 hPa 0,0 l/m 0 min 0 min 0 W/m 20,9 km/h (4 Bft)
25.07.2015 23:58 12,7 C 10,6 C 87 % 0 lf 1015,7 hPa 0,0 l/m 0 min 0 min 0 W/m 16,7 km/h (3 Bft)
_ Min-Zeit 22:46 22:42 08:42 06:26 09:20 - - - - 00:02
Minimum _ 12,3 C 10,0 C 81 % 0 lf 998,3 hPa - - - - 6,3 km/h (2 Bft)
_ Max-Zeit 08:44 08:14 02:26 00:00 23:54 09:08 07:22 04:36 13:30 16:32
Maximum _ 19,7 C 18,3 C 95 % 15 lf 1015,7 hPa 0,6 l/m 2 min 2 min 902 W/m 73,2 km/h
W-SW (8 Bft)
Durchschnitt _ 16,2 C 14,5 C 90 % 7 lf 1004,7 hPa #5,6 l/m #2:38 h #5:22 h 166 W/m 27,0 km/h (4 Bft)
© 2015 W. Hausmann